<?xml version="1.0" encoding="UTF-8" standalone="no" ?>
<gpx xmlns="http://www.topografix.com/GPX/1/1" xmlns:xsi="http://www.w3.org/2001/XMLSchema-instance" xsi:schemaLocation="http://www.topografix.com/GPX/1/1 http://www.topografix.com/GPX/1/1/gpx.xsd" version="1.1" creator="VisuGPX - https://www.visugpx.com">
  <metadata>
    <name>Rando RSL Frontenay</name>
    <desc><![CDATA[Randonnée pédestre à partir du Château de Frontenay (boucle)
20 février 2014]]></desc>
  </metadata>
  <trk>
    <name><![CDATA[FEV-20-14 15-39-30]]></name>
    <trkseg>
      <trkpt lat="46.78591" lon="5.61738">
        <ele>1084.02</ele>
        <time>2014-02-20T12:57:04Z</time>
      </trkpt>
      <trkpt lat="46.78612" lon="5.61724">
        <ele>1083.06</ele>
        <time>2014-02-20T12:58:09Z</time>
      </trkpt>
      <trkpt lat="46.78645" lon="5.6169">
        <ele>1064.32</ele>
        <time>2014-02-20T12:58:27Z</time>
      </trkpt>
      <trkpt lat="46.78652" lon="5.61979">
        <ele>490.41</ele>
        <time>2014-02-20T12:58:46Z</time>
      </trkpt>
      <trkpt lat="46.78657" lon="5.62004">
        <ele>444.75</ele>
        <time>2014-02-20T12:59:19Z</time>
      </trkpt>
      <trkpt lat="46.78658" lon="5.62006">
        <ele>428.89</ele>
        <time>2014-02-20T12:59:40Z</time>
      </trkpt>
      <trkpt lat="46.7866" lon="5.62013">
        <ele>429.37</ele>
        <time>2014-02-20T12:59:52Z</time>
      </trkpt>
      <trkpt lat="46.78663" lon="5.62021">
        <ele>429.85</ele>
        <time>2014-02-20T13:00:01Z</time>
      </trkpt>
      <trkpt lat="46.78665" lon="5.62031">
        <ele>432.73</ele>
        <time>2014-02-20T13:00:12Z</time>
      </trkpt>
      <trkpt lat="46.78666" lon="5.62033">
        <ele>433.21</ele>
        <time>2014-02-20T13:00:14Z</time>
      </trkpt>
      <trkpt lat="46.78668" lon="5.62042">
        <ele>437.54</ele>
        <time>2014-02-20T13:00:25Z</time>
      </trkpt>
      <trkpt lat="46.78672" lon="5.62051">
        <ele>441.38</ele>
        <time>2014-02-20T13:00:36Z</time>
      </trkpt>
      <trkpt lat="46.78674" lon="5.62063">
        <ele>444.75</ele>
        <time>2014-02-20T13:00:48Z</time>
      </trkpt>
      <trkpt lat="46.78674" lon="5.62075">
        <ele>446.67</ele>
        <time>2014-02-20T13:01:08Z</time>
      </trkpt>
      <trkpt lat="46.7868" lon="5.62084">
        <ele>450.52</ele>
        <time>2014-02-20T13:01:19Z</time>
      </trkpt>
      <trkpt lat="46.78686" lon="5.6209">
        <ele>454.84</ele>
        <time>2014-02-20T13:01:27Z</time>
      </trkpt>
      <trkpt lat="46.78692" lon="5.62098">
        <ele>460.61</ele>
        <time>2014-02-20T13:01:35Z</time>
      </trkpt>
      <trkpt lat="46.78699" lon="5.6211">
        <ele>466.86</ele>
        <time>2014-02-20T13:01:45Z</time>
      </trkpt>
      <trkpt lat="46.78707" lon="5.62124">
        <ele>472.63</ele>
        <time>2014-02-20T13:01:58Z</time>
      </trkpt>
      <trkpt lat="46.78715" lon="5.62137">
        <ele>476.47</ele>
        <time>2014-02-20T13:02:08Z</time>
      </trkpt>
      <trkpt lat="46.78721" lon="5.62145">
        <ele>478.39</ele>
        <time>2014-02-20T13:02:15Z</time>
      </trkpt>
      <trkpt lat="46.78726" lon="5.62151">
        <ele>480.32</ele>
        <time>2014-02-20T13:02:22Z</time>
      </trkpt>
      <trkpt lat="46.78729" lon="5.62153">
        <ele>481.28</ele>
        <time>2014-02-20T13:02:25Z</time>
      </trkpt>
      <trkpt lat="46.78736" lon="5.62161">
        <ele>485.6</ele>
        <time>2014-02-20T13:02:37Z</time>
      </trkpt>
      <trkpt lat="46.78741" lon="5.6217">
        <ele>490.41</ele>
        <time>2014-02-20T13:02:48Z</time>
      </trkpt>
      <trkpt lat="46.7875" lon="5.62181">
        <ele>493.77</ele>
        <time>2014-02-20T13:03:00Z</time>
      </trkpt>
      <trkpt lat="46.78759" lon="5.62189">
        <ele>494.74</ele>
        <time>2014-02-20T13:03:11Z</time>
      </trkpt>
      <trkpt lat="46.78768" lon="5.62194">
        <ele>498.58</ele>
        <time>2014-02-20T13:03:23Z</time>
      </trkpt>
      <trkpt lat="46.78776" lon="5.622">
        <ele>501.95</ele>
        <time>2014-02-20T13:03:35Z</time>
      </trkpt>
      <trkpt lat="46.78782" lon="5.62203">
        <ele>503.87</ele>
        <time>2014-02-20T13:03:45Z</time>
      </trkpt>
      <trkpt lat="46.78791" lon="5.62212">
        <ele>507.23</ele>
        <time>2014-02-20T13:03:58Z</time>
      </trkpt>
      <trkpt lat="46.78796" lon="5.6222">
        <ele>505.31</ele>
        <time>2014-02-20T13:04:09Z</time>
      </trkpt>
      <trkpt lat="46.78806" lon="5.62226">
        <ele>507.23</ele>
        <time>2014-02-20T13:04:21Z</time>
      </trkpt>
      <trkpt lat="46.78813" lon="5.62229">
        <ele>506.75</ele>
        <time>2014-02-20T13:04:26Z</time>
      </trkpt>
      <trkpt lat="46.78823" lon="5.62238">
        <ele>508.19</ele>
        <time>2014-02-20T13:04:37Z</time>
      </trkpt>
      <trkpt lat="46.78824" lon="5.6224">
        <ele>508.67</ele>
        <time>2014-02-20T13:04:39Z</time>
      </trkpt>
      <trkpt lat="46.78835" lon="5.6225">
        <ele>507.71</ele>
        <time>2014-02-20T13:04:52Z</time>
      </trkpt>
      <trkpt lat="46.78835" lon="5.62251">
        <ele>506.75</ele>
        <time>2014-02-20T13:04:53Z</time>
      </trkpt>
      <trkpt lat="46.7884" lon="5.62255">
        <ele>505.31</ele>
        <time>2014-02-20T13:04:58Z</time>
      </trkpt>
      <trkpt lat="46.78848" lon="5.62264">
        <ele>502.91</ele>
        <time>2014-02-20T13:05:08Z</time>
      </trkpt>
      <trkpt lat="46.78857" lon="5.62272">
        <ele>502.91</ele>
        <time>2014-02-20T13:05:20Z</time>
      </trkpt>
      <trkpt lat="46.78866" lon="5.6228">
        <ele>504.83</ele>
        <time>2014-02-20T13:05:33Z</time>
      </trkpt>
      <trkpt lat="46.78873" lon="5.62287">
        <ele>506.27</ele>
        <time>2014-02-20T13:05:43Z</time>
      </trkpt>
      <trkpt lat="46.78877" lon="5.62294">
        <ele>508.19</ele>
        <time>2014-02-20T13:05:53Z</time>
      </trkpt>
      <trkpt lat="46.78884" lon="5.62302">
        <ele>511.08</ele>
        <time>2014-02-20T13:06:04Z</time>
      </trkpt>
      <trkpt lat="46.78893" lon="5.62315">
        <ele>512.52</ele>
        <time>2014-02-20T13:06:16Z</time>
      </trkpt>
      <trkpt lat="46.78896" lon="5.62323">
        <ele>513.48</ele>
        <time>2014-02-20T13:06:22Z</time>
      </trkpt>
      <trkpt lat="46.789" lon="5.62336">
        <ele>518.29</ele>
        <time>2014-02-20T13:06:36Z</time>
      </trkpt>
      <trkpt lat="46.78898" lon="5.62341">
        <ele>521.65</ele>
        <time>2014-02-20T13:06:42Z</time>
      </trkpt>
      <trkpt lat="46.78897" lon="5.62343">
        <ele>522.13</ele>
        <time>2014-02-20T13:06:45Z</time>
      </trkpt>
      <trkpt lat="46.78897" lon="5.62348">
        <ele>524.06</ele>
        <time>2014-02-20T13:06:51Z</time>
      </trkpt>
      <trkpt lat="46.78893" lon="5.6236">
        <ele>526.46</ele>
        <time>2014-02-20T13:07:02Z</time>
      </trkpt>
      <trkpt lat="46.78888" lon="5.62373">
        <ele>528.86</ele>
        <time>2014-02-20T13:07:14Z</time>
      </trkpt>
      <trkpt lat="46.78883" lon="5.62384">
        <ele>530.79</ele>
        <time>2014-02-20T13:07:23Z</time>
      </trkpt>
      <trkpt lat="46.78882" lon="5.62387">
        <ele>531.27</ele>
        <time>2014-02-20T13:07:25Z</time>
      </trkpt>
      <trkpt lat="46.78876" lon="5.62395">
        <ele>536.07</ele>
        <time>2014-02-20T13:07:35Z</time>
      </trkpt>
      <trkpt lat="46.78869" lon="5.62402">
        <ele>539.92</ele>
        <time>2014-02-20T13:07:45Z</time>
      </trkpt>
      <trkpt lat="46.78862" lon="5.62405">
        <ele>543.76</ele>
        <time>2014-02-20T13:07:54Z</time>
      </trkpt>
      <trkpt lat="46.78859" lon="5.62408">
        <ele>544.24</ele>
        <time>2014-02-20T13:07:58Z</time>
      </trkpt>
      <trkpt lat="46.78853" lon="5.62413">
        <ele>545.2</ele>
        <time>2014-02-20T13:08:05Z</time>
      </trkpt>
      <trkpt lat="46.78847" lon="5.62419">
        <ele>547.13</ele>
        <time>2014-02-20T13:08:16Z</time>
      </trkpt>
      <trkpt lat="46.7884" lon="5.62427">
        <ele>549.53</ele>
        <time>2014-02-20T13:08:26Z</time>
      </trkpt>
      <trkpt lat="46.78834" lon="5.62432">
        <ele>551.45</ele>
        <time>2014-02-20T13:08:34Z</time>
      </trkpt>
      <trkpt lat="46.78826" lon="5.6244">
        <ele>556.74</ele>
        <time>2014-02-20T13:08:45Z</time>
      </trkpt>
      <trkpt lat="46.78821" lon="5.62445">
        <ele>559.14</ele>
        <time>2014-02-20T13:08:51Z</time>
      </trkpt>
      <trkpt lat="46.78819" lon="5.62446">
        <ele>560.59</ele>
        <time>2014-02-20T13:08:53Z</time>
      </trkpt>
      <trkpt lat="46.78813" lon="5.6245">
        <ele>564.43</ele>
        <time>2014-02-20T13:09:03Z</time>
      </trkpt>
      <trkpt lat="46.78811" lon="5.62452">
        <ele>564.91</ele>
        <time>2014-02-20T13:09:05Z</time>
      </trkpt>
      <trkpt lat="46.78807" lon="5.62453">
        <ele>566.83</ele>
        <time>2014-02-20T13:09:09Z</time>
      </trkpt>
      <trkpt lat="46.78794" lon="5.62461">
        <ele>569.72</ele>
        <time>2014-02-20T13:09:21Z</time>
      </trkpt>
      <trkpt lat="46.78783" lon="5.6247">
        <ele>571.64</ele>
        <time>2014-02-20T13:09:33Z</time>
      </trkpt>
      <trkpt lat="46.78778" lon="5.62472">
        <ele>573.08</ele>
        <time>2014-02-20T13:09:38Z</time>
      </trkpt>
      <trkpt lat="46.78767" lon="5.62485">
        <ele>574.04</ele>
        <time>2014-02-20T13:09:51Z</time>
      </trkpt>
      <trkpt lat="46.78756" lon="5.62491">
        <ele>574.53</ele>
        <time>2014-02-20T13:10:02Z</time>
      </trkpt>
      <trkpt lat="46.78755" lon="5.62492">
        <ele>574.53</ele>
        <time>2014-02-20T13:10:04Z</time>
      </trkpt>
      <trkpt lat="46.78744" lon="5.62509">
        <ele>573.08</ele>
        <time>2014-02-20T13:10:16Z</time>
      </trkpt>
      <trkpt lat="46.7873" lon="5.62526">
        <ele>573.08</ele>
        <time>2014-02-20T13:10:31Z</time>
      </trkpt>
      <trkpt lat="46.78721" lon="5.62535">
        <ele>572.12</ele>
        <time>2014-02-20T13:10:41Z</time>
      </trkpt>
      <trkpt lat="46.78719" lon="5.62538">
        <ele>572.12</ele>
        <time>2014-02-20T13:10:44Z</time>
      </trkpt>
      <trkpt lat="46.7871" lon="5.62547">
        <ele>572.12</ele>
        <time>2014-02-20T13:10:56Z</time>
      </trkpt>
      <trkpt lat="46.78708" lon="5.62549">
        <ele>572.12</ele>
        <time>2014-02-20T13:11:00Z</time>
      </trkpt>
      <trkpt lat="46.787" lon="5.6256">
        <ele>573.08</ele>
        <time>2014-02-20T13:11:12Z</time>
      </trkpt>
      <trkpt lat="46.78699" lon="5.62561">
        <ele>573.08</ele>
        <time>2014-02-20T13:11:13Z</time>
      </trkpt>
      <trkpt lat="46.78692" lon="5.62567">
        <ele>573.08</ele>
        <time>2014-02-20T13:11:19Z</time>
      </trkpt>
      <trkpt lat="46.78685" lon="5.62573">
        <ele>574.53</ele>
        <time>2014-02-20T13:11:28Z</time>
      </trkpt>
      <trkpt lat="46.78674" lon="5.62584">
        <ele>575.49</ele>
        <time>2014-02-20T13:11:39Z</time>
      </trkpt>
      <trkpt lat="46.78659" lon="5.62595">
        <ele>574.53</ele>
        <time>2014-02-20T13:11:53Z</time>
      </trkpt>
      <trkpt lat="46.78653" lon="5.62603">
        <ele>573.56</ele>
        <time>2014-02-20T13:12:03Z</time>
      </trkpt>
      <trkpt lat="46.78642" lon="5.62613">
        <ele>572.6</ele>
        <time>2014-02-20T13:12:15Z</time>
      </trkpt>
      <trkpt lat="46.78633" lon="5.62624">
        <ele>571.16</ele>
        <time>2014-02-20T13:12:26Z</time>
      </trkpt>
      <trkpt lat="46.78622" lon="5.6263">
        <ele>568.28</ele>
        <time>2014-02-20T13:12:38Z</time>
      </trkpt>
      <trkpt lat="46.78616" lon="5.62634">
        <ele>565.39</ele>
        <time>2014-02-20T13:12:49Z</time>
      </trkpt>
      <trkpt lat="46.78606" lon="5.62641">
        <ele>562.51</ele>
        <time>2014-02-20T13:13:00Z</time>
      </trkpt>
      <trkpt lat="46.78599" lon="5.62645">
        <ele>561.55</ele>
        <time>2014-02-20T13:13:10Z</time>
      </trkpt>
      <trkpt lat="46.78591" lon="5.6265">
        <ele>560.11</ele>
        <time>2014-02-20T13:13:21Z</time>
      </trkpt>
      <trkpt lat="46.78583" lon="5.62654">
        <ele>558.18</ele>
        <time>2014-02-20T13:13:32Z</time>
      </trkpt>
      <trkpt lat="46.78577" lon="5.62657">
        <ele>558.18</ele>
        <time>2014-02-20T13:13:42Z</time>
      </trkpt>
      <trkpt lat="46.78569" lon="5.62657">
        <ele>558.18</ele>
        <time>2014-02-20T13:13:54Z</time>
      </trkpt>
      <trkpt lat="46.78558" lon="5.62657">
        <ele>557.7</ele>
        <time>2014-02-20T13:14:11Z</time>
      </trkpt>
      <trkpt lat="46.78545" lon="5.62657">
        <ele>556.26</ele>
        <time>2014-02-20T13:14:24Z</time>
      </trkpt>
      <trkpt lat="46.78531" lon="5.62658">
        <ele>554.82</ele>
        <time>2014-02-20T13:14:37Z</time>
      </trkpt>
      <trkpt lat="46.78523" lon="5.62656">
        <ele>554.82</ele>
        <time>2014-02-20T13:14:48Z</time>
      </trkpt>
      <trkpt lat="46.78514" lon="5.62656">
        <ele>554.82</ele>
        <time>2014-02-20T13:14:59Z</time>
      </trkpt>
      <trkpt lat="46.78503" lon="5.62652">
        <ele>551.93</ele>
        <time>2014-02-20T13:15:10Z</time>
      </trkpt>
      <trkpt lat="46.78495" lon="5.62649">
        <ele>550.49</ele>
        <time>2014-02-20T13:15:20Z</time>
      </trkpt>
      <trkpt lat="46.78483" lon="5.62647">
        <ele>550.49</ele>
        <time>2014-02-20T13:15:32Z</time>
      </trkpt>
      <trkpt lat="46.78473" lon="5.62643">
        <ele>549.53</ele>
        <time>2014-02-20T13:15:45Z</time>
      </trkpt>
      <trkpt lat="46.78464" lon="5.62638">
        <ele>547.13</ele>
        <time>2014-02-20T13:15:55Z</time>
      </trkpt>
      <trkpt lat="46.78452" lon="5.62634">
        <ele>546.65</ele>
        <time>2014-02-20T13:16:08Z</time>
      </trkpt>
      <trkpt lat="46.78445" lon="5.62629">
        <ele>547.61</ele>
        <time>2014-02-20T13:16:17Z</time>
      </trkpt>
      <trkpt lat="46.78435" lon="5.62623">
        <ele>549.05</ele>
        <time>2014-02-20T13:16:28Z</time>
      </trkpt>
      <trkpt lat="46.78431" lon="5.6262">
        <ele>548.09</ele>
        <time>2014-02-20T13:16:33Z</time>
      </trkpt>
      <trkpt lat="46.78424" lon="5.62612">
        <ele>546.65</ele>
        <time>2014-02-20T13:16:44Z</time>
      </trkpt>
      <trkpt lat="46.78422" lon="5.62611">
        <ele>546.17</ele>
        <time>2014-02-20T13:16:46Z</time>
      </trkpt>
      <trkpt lat="46.78417" lon="5.62608">
        <ele>548.09</ele>
        <time>2014-02-20T13:16:51Z</time>
      </trkpt>
      <trkpt lat="46.78409" lon="5.62599">
        <ele>550.01</ele>
        <time>2014-02-20T13:17:01Z</time>
      </trkpt>
      <trkpt lat="46.78401" lon="5.6259">
        <ele>549.05</ele>
        <time>2014-02-20T13:17:11Z</time>
      </trkpt>
      <trkpt lat="46.78389" lon="5.62579">
        <ele>551.45</ele>
        <time>2014-02-20T13:17:22Z</time>
      </trkpt>
      <trkpt lat="46.78379" lon="5.62569">
        <ele>550.49</ele>
        <time>2014-02-20T13:17:32Z</time>
      </trkpt>
      <trkpt lat="46.7837" lon="5.6256">
        <ele>550.49</ele>
        <time>2014-02-20T13:17:43Z</time>
      </trkpt>
      <trkpt lat="46.78361" lon="5.62547">
        <ele>551.93</ele>
        <time>2014-02-20T13:17:53Z</time>
      </trkpt>
      <trkpt lat="46.78356" lon="5.62542">
        <ele>551.93</ele>
        <time>2014-02-20T13:17:57Z</time>
      </trkpt>
      <trkpt lat="46.78344" lon="5.6253">
        <ele>553.86</ele>
        <time>2014-02-20T13:18:08Z</time>
      </trkpt>
      <trkpt lat="46.78337" lon="5.62521">
        <ele>555.3</ele>
        <time>2014-02-20T13:18:18Z</time>
      </trkpt>
      <trkpt lat="46.78329" lon="5.62516">
        <ele>554.34</ele>
        <time>2014-02-20T13:18:28Z</time>
      </trkpt>
      <trkpt lat="46.78315" lon="5.62506">
        <ele>559.14</ele>
        <time>2014-02-20T13:18:42Z</time>
      </trkpt>
      <trkpt lat="46.783" lon="5.62499">
        <ele>558.18</ele>
        <time>2014-02-20T13:18:53Z</time>
      </trkpt>
      <trkpt lat="46.78275" lon="5.62492">
        <ele>550.49</ele>
        <time>2014-02-20T13:19:07Z</time>
      </trkpt>
      <trkpt lat="46.78258" lon="5.62492">
        <ele>532.71</ele>
        <time>2014-02-20T13:19:19Z</time>
      </trkpt>
      <trkpt lat="46.78241" lon="5.6248">
        <ele>521.65</ele>
        <time>2014-02-20T13:19:31Z</time>
      </trkpt>
      <trkpt lat="46.78231" lon="5.62477">
        <ele>515.4</ele>
        <time>2014-02-20T13:19:36Z</time>
      </trkpt>
      <trkpt lat="46.78208" lon="5.62472">
        <ele>500.02</ele>
        <time>2014-02-20T13:19:51Z</time>
      </trkpt>
      <trkpt lat="46.78207" lon="5.62472">
        <ele>499.54</ele>
        <time>2014-02-20T13:19:52Z</time>
      </trkpt>
      <trkpt lat="46.78183" lon="5.62473">
        <ele>492.33</ele>
        <time>2014-02-20T13:20:08Z</time>
      </trkpt>
      <trkpt lat="46.78165" lon="5.62482">
        <ele>490.41</ele>
        <time>2014-02-20T13:20:21Z</time>
      </trkpt>
      <trkpt lat="46.78162" lon="5.62486">
        <ele>490.41</ele>
        <time>2014-02-20T13:20:24Z</time>
      </trkpt>
      <trkpt lat="46.78148" lon="5.62498">
        <ele>488.49</ele>
        <time>2014-02-20T13:20:36Z</time>
      </trkpt>
      <trkpt lat="46.78136" lon="5.62513">
        <ele>487.05</ele>
        <time>2014-02-20T13:20:48Z</time>
      </trkpt>
      <trkpt lat="46.78122" lon="5.62526">
        <ele>488.01</ele>
        <time>2014-02-20T13:21:01Z</time>
      </trkpt>
      <trkpt lat="46.78109" lon="5.62535">
        <ele>487.05</ele>
        <time>2014-02-20T13:21:13Z</time>
      </trkpt>
      <trkpt lat="46.78107" lon="5.62536">
        <ele>487.05</ele>
        <time>2014-02-20T13:21:15Z</time>
      </trkpt>
      <trkpt lat="46.78098" lon="5.62541">
        <ele>484.64</ele>
        <time>2014-02-20T13:21:23Z</time>
      </trkpt>
      <trkpt lat="46.78085" lon="5.62546">
        <ele>479.84</ele>
        <time>2014-02-20T13:21:37Z</time>
      </trkpt>
      <trkpt lat="46.78073" lon="5.62548">
        <ele>477.91</ele>
        <time>2014-02-20T13:21:49Z</time>
      </trkpt>
      <trkpt lat="46.78054" lon="5.62548">
        <ele>477.43</ele>
        <time>2014-02-20T13:22:05Z</time>
      </trkpt>
      <trkpt lat="46.78035" lon="5.6255">
        <ele>475.03</ele>
        <time>2014-02-20T13:22:21Z</time>
      </trkpt>
      <trkpt lat="46.78022" lon="5.62549">
        <ele>475.51</ele>
        <time>2014-02-20T13:22:33Z</time>
      </trkpt>
      <trkpt lat="46.78" lon="5.62547">
        <ele>472.63</ele>
        <time>2014-02-20T13:22:50Z</time>
      </trkpt>
      <trkpt lat="46.77982" lon="5.62546">
        <ele>471.18</ele>
        <time>2014-02-20T13:23:05Z</time>
      </trkpt>
      <trkpt lat="46.77962" lon="5.62551">
        <ele>470.22</ele>
        <time>2014-02-20T13:23:21Z</time>
      </trkpt>
      <trkpt lat="46.77947" lon="5.62563">
        <ele>471.18</ele>
        <time>2014-02-20T13:23:36Z</time>
      </trkpt>
      <trkpt lat="46.77934" lon="5.62576">
        <ele>471.18</ele>
        <time>2014-02-20T13:23:49Z</time>
      </trkpt>
      <trkpt lat="46.77921" lon="5.62585">
        <ele>471.18</ele>
        <time>2014-02-20T13:24:01Z</time>
      </trkpt>
      <trkpt lat="46.77904" lon="5.6259">
        <ele>471.66</ele>
        <time>2014-02-20T13:24:16Z</time>
      </trkpt>
      <trkpt lat="46.77897" lon="5.62588">
        <ele>472.14</ele>
        <time>2014-02-20T13:24:23Z</time>
      </trkpt>
      <trkpt lat="46.77895" lon="5.62586">
        <ele>472.14</ele>
        <time>2014-02-20T13:24:25Z</time>
      </trkpt>
      <trkpt lat="46.77877" lon="5.62577">
        <ele>471.66</ele>
        <time>2014-02-20T13:24:42Z</time>
      </trkpt>
      <trkpt lat="46.77858" lon="5.62576">
        <ele>469.26</ele>
        <time>2014-02-20T13:24:58Z</time>
      </trkpt>
      <trkpt lat="46.77842" lon="5.62581">
        <ele>468.3</ele>
        <time>2014-02-20T13:25:12Z</time>
      </trkpt>
      <trkpt lat="46.77826" lon="5.6258">
        <ele>468.3</ele>
        <time>2014-02-20T13:25:25Z</time>
      </trkpt>
      <trkpt lat="46.77816" lon="5.62579">
        <ele>469.26</ele>
        <time>2014-02-20T13:25:33Z</time>
      </trkpt>
      <trkpt lat="46.77804" lon="5.62578">
        <ele>470.22</ele>
        <time>2014-02-20T13:25:45Z</time>
      </trkpt>
      <trkpt lat="46.77799" lon="5.6258">
        <ele>469.74</ele>
        <time>2014-02-20T13:25:50Z</time>
      </trkpt>
      <trkpt lat="46.77788" lon="5.62588">
        <ele>469.26</ele>
        <time>2014-02-20T13:26:00Z</time>
      </trkpt>
      <trkpt lat="46.77782" lon="5.62594">
        <ele>469.26</ele>
        <time>2014-02-20T13:26:05Z</time>
      </trkpt>
      <trkpt lat="46.77767" lon="5.62607">
        <ele>468.78</ele>
        <time>2014-02-20T13:26:20Z</time>
      </trkpt>
      <trkpt lat="46.77755" lon="5.6262">
        <ele>468.78</ele>
        <time>2014-02-20T13:26:32Z</time>
      </trkpt>
      <trkpt lat="46.77743" lon="5.62636">
        <ele>468.3</ele>
        <time>2014-02-20T13:26:46Z</time>
      </trkpt>
      <trkpt lat="46.77733" lon="5.62652">
        <ele>469.26</ele>
        <time>2014-02-20T13:26:57Z</time>
      </trkpt>
      <trkpt lat="46.77724" lon="5.6267">
        <ele>468.3</ele>
        <time>2014-02-20T13:27:09Z</time>
      </trkpt>
      <trkpt lat="46.77715" lon="5.62689">
        <ele>467.82</ele>
        <time>2014-02-20T13:27:22Z</time>
      </trkpt>
      <trkpt lat="46.77704" lon="5.6271">
        <ele>467.82</ele>
        <time>2014-02-20T13:27:38Z</time>
      </trkpt>
      <trkpt lat="46.77694" lon="5.62732">
        <ele>468.3</ele>
        <time>2014-02-20T13:27:53Z</time>
      </trkpt>
      <trkpt lat="46.77689" lon="5.62741">
        <ele>469.26</ele>
        <time>2014-02-20T13:28:00Z</time>
      </trkpt>
      <trkpt lat="46.7768" lon="5.62763">
        <ele>470.22</ele>
        <time>2014-02-20T13:28:15Z</time>
      </trkpt>
      <trkpt lat="46.77671" lon="5.62783">
        <ele>471.18</ele>
        <time>2014-02-20T13:28:29Z</time>
      </trkpt>
      <trkpt lat="46.77669" lon="5.62791">
        <ele>471.18</ele>
        <time>2014-02-20T13:28:34Z</time>
      </trkpt>
      <trkpt lat="46.77664" lon="5.62801">
        <ele>471.66</ele>
        <time>2014-02-20T13:28:41Z</time>
      </trkpt>
      <trkpt lat="46.77653" lon="5.62822">
        <ele>472.63</ele>
        <time>2014-02-20T13:28:57Z</time>
      </trkpt>
      <trkpt lat="46.77641" lon="5.62841">
        <ele>472.63</ele>
        <time>2014-02-20T13:29:12Z</time>
      </trkpt>
      <trkpt lat="46.77629" lon="5.62859">
        <ele>472.63</ele>
        <time>2014-02-20T13:29:26Z</time>
      </trkpt>
      <trkpt lat="46.77626" lon="5.62864">
        <ele>472.63</ele>
        <time>2014-02-20T13:29:32Z</time>
      </trkpt>
      <trkpt lat="46.7761" lon="5.62863">
        <ele>474.07</ele>
        <time>2014-02-20T13:29:47Z</time>
      </trkpt>
      <trkpt lat="46.77593" lon="5.62856">
        <ele>476.95</ele>
        <time>2014-02-20T13:30:02Z</time>
      </trkpt>
      <trkpt lat="46.77581" lon="5.62853">
        <ele>476.95</ele>
        <time>2014-02-20T13:30:14Z</time>
      </trkpt>
      <trkpt lat="46.77579" lon="5.62852">
        <ele>476.95</ele>
        <time>2014-02-20T13:30:16Z</time>
      </trkpt>
      <trkpt lat="46.77571" lon="5.62851">
        <ele>478.39</ele>
        <time>2014-02-20T13:30:24Z</time>
      </trkpt>
      <trkpt lat="46.77558" lon="5.62849">
        <ele>481.28</ele>
        <time>2014-02-20T13:30:37Z</time>
      </trkpt>
      <trkpt lat="46.77542" lon="5.62845">
        <ele>485.12</ele>
        <time>2014-02-20T13:30:52Z</time>
      </trkpt>
      <trkpt lat="46.77531" lon="5.62842">
        <ele>486.56</ele>
        <time>2014-02-20T13:31:02Z</time>
      </trkpt>
      <trkpt lat="46.77515" lon="5.62837">
        <ele>485.6</ele>
        <time>2014-02-20T13:31:16Z</time>
      </trkpt>
      <trkpt lat="46.77512" lon="5.62837">
        <ele>485.12</ele>
        <time>2014-02-20T13:31:18Z</time>
      </trkpt>
      <trkpt lat="46.77509" lon="5.62836">
        <ele>484.64</ele>
        <time>2014-02-20T13:31:21Z</time>
      </trkpt>
      <trkpt lat="46.77503" lon="5.62835">
        <ele>484.16</ele>
        <time>2014-02-20T13:31:26Z</time>
      </trkpt>
      <trkpt lat="46.77497" lon="5.62834">
        <ele>483.68</ele>
        <time>2014-02-20T13:31:31Z</time>
      </trkpt>
      <trkpt lat="46.77487" lon="5.62822">
        <ele>484.64</ele>
        <time>2014-02-20T13:31:44Z</time>
      </trkpt>
      <trkpt lat="46.77482" lon="5.62816">
        <ele>485.12</ele>
        <time>2014-02-20T13:31:51Z</time>
      </trkpt>
      <trkpt lat="46.7748" lon="5.62815">
        <ele>485.6</ele>
        <time>2014-02-20T13:31:53Z</time>
      </trkpt>
      <trkpt lat="46.77475" lon="5.62806">
        <ele>487.05</ele>
        <time>2014-02-20T13:32:03Z</time>
      </trkpt>
      <trkpt lat="46.77471" lon="5.62795">
        <ele>488.49</ele>
        <time>2014-02-20T13:32:14Z</time>
      </trkpt>
      <trkpt lat="46.77463" lon="5.62784">
        <ele>489.93</ele>
        <time>2014-02-20T13:32:24Z</time>
      </trkpt>
      <trkpt lat="46.77459" lon="5.62776">
        <ele>492.33</ele>
        <time>2014-02-20T13:32:30Z</time>
      </trkpt>
      <trkpt lat="46.77453" lon="5.62765">
        <ele>496.18</ele>
        <time>2014-02-20T13:32:40Z</time>
      </trkpt>
      <trkpt lat="46.77443" lon="5.62753">
        <ele>500.5</ele>
        <time>2014-02-20T13:32:52Z</time>
      </trkpt>
      <trkpt lat="46.77434" lon="5.6274">
        <ele>505.31</ele>
        <time>2014-02-20T13:33:03Z</time>
      </trkpt>
      <trkpt lat="46.77422" lon="5.6273">
        <ele>512.52</ele>
        <time>2014-02-20T13:33:14Z</time>
      </trkpt>
      <trkpt lat="46.77417" lon="5.62722">
        <ele>514.44</ele>
        <time>2014-02-20T13:33:20Z</time>
      </trkpt>
      <trkpt lat="46.77412" lon="5.62717">
        <ele>515.4</ele>
        <time>2014-02-20T13:33:24Z</time>
      </trkpt>
      <trkpt lat="46.77402" lon="5.62702">
        <ele>522.13</ele>
        <time>2014-02-20T13:33:37Z</time>
      </trkpt>
      <trkpt lat="46.77401" lon="5.62701">
        <ele>522.13</ele>
        <time>2014-02-20T13:33:38Z</time>
      </trkpt>
      <trkpt lat="46.77388" lon="5.62688">
        <ele>520.21</ele>
        <time>2014-02-20T13:33:50Z</time>
      </trkpt>
      <trkpt lat="46.77387" lon="5.62688">
        <ele>520.21</ele>
        <time>2014-02-20T13:33:51Z</time>
      </trkpt>
      <trkpt lat="46.77378" lon="5.62683">
        <ele>519.73</ele>
        <time>2014-02-20T13:34:02Z</time>
      </trkpt>
      <trkpt lat="46.77367" lon="5.62675">
        <ele>518.77</ele>
        <time>2014-02-20T13:34:13Z</time>
      </trkpt>
      <trkpt lat="46.77364" lon="5.62675">
        <ele>516.85</ele>
        <time>2014-02-20T13:34:15Z</time>
      </trkpt>
      <trkpt lat="46.7735" lon="5.62676">
        <ele>509.64</ele>
        <time>2014-02-20T13:34:25Z</time>
      </trkpt>
      <trkpt lat="46.77343" lon="5.62675">
        <ele>508.67</ele>
        <time>2014-02-20T13:34:32Z</time>
      </trkpt>
      <trkpt lat="46.77335" lon="5.62666">
        <ele>509.16</ele>
        <time>2014-02-20T13:34:45Z</time>
      </trkpt>
      <trkpt lat="46.77327" lon="5.62656">
        <ele>512.52</ele>
        <time>2014-02-20T13:34:55Z</time>
      </trkpt>
      <trkpt lat="46.77319" lon="5.62648">
        <ele>515.88</ele>
        <time>2014-02-20T13:35:05Z</time>
      </trkpt>
      <trkpt lat="46.77317" lon="5.62646">
        <ele>516.37</ele>
        <time>2014-02-20T13:35:07Z</time>
      </trkpt>
      <trkpt lat="46.77309" lon="5.62636">
        <ele>518.77</ele>
        <time>2014-02-20T13:35:17Z</time>
      </trkpt>
      <trkpt lat="46.77302" lon="5.62624">
        <ele>522.13</ele>
        <time>2014-02-20T13:35:28Z</time>
      </trkpt>
      <trkpt lat="46.77297" lon="5.62615">
        <ele>525.5</ele>
        <time>2014-02-20T13:35:38Z</time>
      </trkpt>
      <trkpt lat="46.77296" lon="5.62614">
        <ele>526.46</ele>
        <time>2014-02-20T13:35:41Z</time>
      </trkpt>
      <trkpt lat="46.77291" lon="5.62607">
        <ele>527.9</ele>
        <time>2014-02-20T13:35:47Z</time>
      </trkpt>
      <trkpt lat="46.7729" lon="5.62603">
        <ele>528.86</ele>
        <time>2014-02-20T13:35:49Z</time>
      </trkpt>
      <trkpt lat="46.77285" lon="5.62595">
        <ele>530.3</ele>
        <time>2014-02-20T13:35:55Z</time>
      </trkpt>
      <trkpt lat="46.77283" lon="5.62591">
        <ele>530.3</ele>
        <time>2014-02-20T13:35:57Z</time>
      </trkpt>
      <trkpt lat="46.77271" lon="5.62573">
        <ele>528.38</ele>
        <time>2014-02-20T13:36:10Z</time>
      </trkpt>
      <trkpt lat="46.77269" lon="5.62571">
        <ele>527.42</ele>
        <time>2014-02-20T13:36:12Z</time>
      </trkpt>
      <trkpt lat="46.77266" lon="5.6257">
        <ele>526.94</ele>
        <time>2014-02-20T13:36:14Z</time>
      </trkpt>
      <trkpt lat="46.77265" lon="5.62568">
        <ele>526.94</ele>
        <time>2014-02-20T13:36:16Z</time>
      </trkpt>
      <trkpt lat="46.77262" lon="5.62561">
        <ele>526.46</ele>
        <time>2014-02-20T13:36:21Z</time>
      </trkpt>
      <trkpt lat="46.77257" lon="5.62555">
        <ele>524.54</ele>
        <time>2014-02-20T13:36:26Z</time>
      </trkpt>
      <trkpt lat="46.77252" lon="5.62543">
        <ele>509.16</ele>
        <time>2014-02-20T13:36:41Z</time>
      </trkpt>
      <trkpt lat="46.77252" lon="5.62537">
        <ele>495.7</ele>
        <time>2014-02-20T13:36:52Z</time>
      </trkpt>
      <trkpt lat="46.77251" lon="5.62534">
        <ele>494.74</ele>
        <time>2014-02-20T13:36:54Z</time>
      </trkpt>
      <trkpt lat="46.77245" lon="5.62517">
        <ele>486.56</ele>
        <time>2014-02-20T13:37:05Z</time>
      </trkpt>
      <trkpt lat="46.77242" lon="5.6251">
        <ele>483.68</ele>
        <time>2014-02-20T13:37:09Z</time>
      </trkpt>
      <trkpt lat="46.77241" lon="5.62509">
        <ele>479.35</ele>
        <time>2014-02-20T13:37:12Z</time>
      </trkpt>
      <trkpt lat="46.77239" lon="5.62502">
        <ele>474.55</ele>
        <time>2014-02-20T13:37:19Z</time>
      </trkpt>
      <trkpt lat="46.77239" lon="5.62498">
        <ele>472.63</ele>
        <time>2014-02-20T13:37:22Z</time>
      </trkpt>
      <trkpt lat="46.77237" lon="5.62495">
        <ele>471.66</ele>
        <time>2014-02-20T13:37:24Z</time>
      </trkpt>
      <trkpt lat="46.77233" lon="5.62489">
        <ele>468.3</ele>
        <time>2014-02-20T13:37:30Z</time>
      </trkpt>
      <trkpt lat="46.77226" lon="5.62472">
        <ele>463.49</ele>
        <time>2014-02-20T13:37:42Z</time>
      </trkpt>
      <trkpt lat="46.77224" lon="5.62469">
        <ele>462.53</ele>
        <time>2014-02-20T13:37:44Z</time>
      </trkpt>
      <trkpt lat="46.77218" lon="5.62453">
        <ele>458.69</ele>
        <time>2014-02-20T13:37:53Z</time>
      </trkpt>
      <trkpt lat="46.77212" lon="5.62437">
        <ele>456.76</ele>
        <time>2014-02-20T13:38:07Z</time>
      </trkpt>
      <trkpt lat="46.77208" lon="5.6243">
        <ele>457.24</ele>
        <time>2014-02-20T13:38:14Z</time>
      </trkpt>
      <trkpt lat="46.77203" lon="5.62421">
        <ele>458.21</ele>
        <time>2014-02-20T13:38:24Z</time>
      </trkpt>
      <trkpt lat="46.772" lon="5.62416">
        <ele>458.21</ele>
        <time>2014-02-20T13:38:28Z</time>
      </trkpt>
      <trkpt lat="46.77197" lon="5.62404">
        <ele>454.84</ele>
        <time>2014-02-20T13:38:41Z</time>
      </trkpt>
      <trkpt lat="46.77197" lon="5.62401">
        <ele>451.96</ele>
        <time>2014-02-20T13:38:44Z</time>
      </trkpt>
      <trkpt lat="46.77205" lon="5.6239">
        <ele>442.34</ele>
        <time>2014-02-20T13:38:53Z</time>
      </trkpt>
      <trkpt lat="46.77206" lon="5.62387">
        <ele>440.42</ele>
        <time>2014-02-20T13:38:55Z</time>
      </trkpt>
      <trkpt lat="46.77213" lon="5.62381">
        <ele>434.65</ele>
        <time>2014-02-20T13:39:04Z</time>
      </trkpt>
      <trkpt lat="46.77214" lon="5.6238">
        <ele>432.73</ele>
        <time>2014-02-20T13:39:06Z</time>
      </trkpt>
      <trkpt lat="46.77225" lon="5.6238">
        <ele>426.48</ele>
        <time>2014-02-20T13:39:16Z</time>
      </trkpt>
      <trkpt lat="46.77227" lon="5.6238">
        <ele>425.04</ele>
        <time>2014-02-20T13:39:18Z</time>
      </trkpt>
      <trkpt lat="46.77231" lon="5.62379">
        <ele>423.6</ele>
        <time>2014-02-20T13:39:26Z</time>
      </trkpt>
      <trkpt lat="46.77233" lon="5.62377">
        <ele>423.12</ele>
        <time>2014-02-20T13:39:29Z</time>
      </trkpt>
      <trkpt lat="46.77236" lon="5.62375">
        <ele>422.16</ele>
        <time>2014-02-20T13:39:33Z</time>
      </trkpt>
      <trkpt lat="46.7724" lon="5.62372">
        <ele>420.23</ele>
        <time>2014-02-20T13:39:39Z</time>
      </trkpt>
      <trkpt lat="46.77242" lon="5.62364">
        <ele>419.27</ele>
        <time>2014-02-20T13:39:49Z</time>
      </trkpt>
      <trkpt lat="46.77248" lon="5.62355">
        <ele>416.39</ele>
        <time>2014-02-20T13:40:01Z</time>
      </trkpt>
      <trkpt lat="46.7725" lon="5.62353">
        <ele>415.91</ele>
        <time>2014-02-20T13:40:03Z</time>
      </trkpt>
      <trkpt lat="46.77252" lon="5.62352">
        <ele>414.95</ele>
        <time>2014-02-20T13:40:05Z</time>
      </trkpt>
      <trkpt lat="46.77255" lon="5.62347">
        <ele>414.47</ele>
        <time>2014-02-20T13:40:08Z</time>
      </trkpt>
      <trkpt lat="46.77259" lon="5.62341">
        <ele>414.47</ele>
        <time>2014-02-20T13:40:13Z</time>
      </trkpt>
      <trkpt lat="46.77273" lon="5.62328">
        <ele>412.06</ele>
        <time>2014-02-20T13:40:27Z</time>
      </trkpt>
      <trkpt lat="46.77276" lon="5.62325">
        <ele>412.54</ele>
        <time>2014-02-20T13:40:30Z</time>
      </trkpt>
      <trkpt lat="46.77279" lon="5.62318">
        <ele>413.02</ele>
        <time>2014-02-20T13:40:35Z</time>
      </trkpt>
      <trkpt lat="46.77281" lon="5.62309">
        <ele>413.5</ele>
        <time>2014-02-20T13:40:41Z</time>
      </trkpt>
      <trkpt lat="46.77284" lon="5.62302">
        <ele>413.98</ele>
        <time>2014-02-20T13:40:46Z</time>
      </trkpt>
      <trkpt lat="46.77289" lon="5.62289">
        <ele>415.43</ele>
        <time>2014-02-20T13:40:56Z</time>
      </trkpt>
      <trkpt lat="46.77289" lon="5.62276">
        <ele>419.75</ele>
        <time>2014-02-20T13:41:08Z</time>
      </trkpt>
      <trkpt lat="46.7729" lon="5.62264">
        <ele>421.19</ele>
        <time>2014-02-20T13:41:19Z</time>
      </trkpt>
      <trkpt lat="46.7729" lon="5.62249">
        <ele>422.64</ele>
        <time>2014-02-20T13:41:31Z</time>
      </trkpt>
      <trkpt lat="46.7729" lon="5.62227">
        <ele>421.68</ele>
        <time>2014-02-20T13:41:43Z</time>
      </trkpt>
      <trkpt lat="46.77291" lon="5.6222">
        <ele>420.71</ele>
        <time>2014-02-20T13:41:47Z</time>
      </trkpt>
      <trkpt lat="46.773" lon="5.62194">
        <ele>416.87</ele>
        <time>2014-02-20T13:42:01Z</time>
      </trkpt>
      <trkpt lat="46.77303" lon="5.6219">
        <ele>416.39</ele>
        <time>2014-02-20T13:42:04Z</time>
      </trkpt>
      <trkpt lat="46.77309" lon="5.62172">
        <ele>414.95</ele>
        <time>2014-02-20T13:42:16Z</time>
      </trkpt>
      <trkpt lat="46.77311" lon="5.6217">
        <ele>413.98</ele>
        <time>2014-02-20T13:42:25Z</time>
      </trkpt>
      <trkpt lat="46.77314" lon="5.62166">
        <ele>413.98</ele>
        <time>2014-02-20T13:42:30Z</time>
      </trkpt>
      <trkpt lat="46.77316" lon="5.62164">
        <ele>413.98</ele>
        <time>2014-02-20T13:42:33Z</time>
      </trkpt>
      <trkpt lat="46.77318" lon="5.62158">
        <ele>413.02</ele>
        <time>2014-02-20T13:42:37Z</time>
      </trkpt>
      <trkpt lat="46.77323" lon="5.62143">
        <ele>410.14</ele>
        <time>2014-02-20T13:42:47Z</time>
      </trkpt>
      <trkpt lat="46.77331" lon="5.62125">
        <ele>407.26</ele>
        <time>2014-02-20T13:43:00Z</time>
      </trkpt>
      <trkpt lat="46.77337" lon="5.62106">
        <ele>406.29</ele>
        <time>2014-02-20T13:43:13Z</time>
      </trkpt>
      <trkpt lat="46.77344" lon="5.62085">
        <ele>402.93</ele>
        <time>2014-02-20T13:43:27Z</time>
      </trkpt>
      <trkpt lat="46.77348" lon="5.62068">
        <ele>402.45</ele>
        <time>2014-02-20T13:43:37Z</time>
      </trkpt>
      <trkpt lat="46.7735" lon="5.62058">
        <ele>402.45</ele>
        <time>2014-02-20T13:43:43Z</time>
      </trkpt>
      <trkpt lat="46.7735" lon="5.62057">
        <ele>402.45</ele>
        <time>2014-02-20T13:43:45Z</time>
      </trkpt>
      <trkpt lat="46.77358" lon="5.62033">
        <ele>399.57</ele>
        <time>2014-02-20T13:44:00Z</time>
      </trkpt>
      <trkpt lat="46.77359" lon="5.6203">
        <ele>399.57</ele>
        <time>2014-02-20T13:44:02Z</time>
      </trkpt>
      <trkpt lat="46.7736" lon="5.62025">
        <ele>398.6</ele>
        <time>2014-02-20T13:44:05Z</time>
      </trkpt>
      <trkpt lat="46.77364" lon="5.62011">
        <ele>397.16</ele>
        <time>2014-02-20T13:44:15Z</time>
      </trkpt>
      <trkpt lat="46.77365" lon="5.6201">
        <ele>397.16</ele>
        <time>2014-02-20T13:44:16Z</time>
      </trkpt>
      <trkpt lat="46.77367" lon="5.61997">
        <ele>396.68</ele>
        <time>2014-02-20T13:44:31Z</time>
      </trkpt>
      <trkpt lat="46.77368" lon="5.61994">
        <ele>396.68</ele>
        <time>2014-02-20T13:44:34Z</time>
      </trkpt>
      <trkpt lat="46.7737" lon="5.61985">
        <ele>395.72</ele>
        <time>2014-02-20T13:44:40Z</time>
      </trkpt>
      <trkpt lat="46.77375" lon="5.61966">
        <ele>395.24</ele>
        <time>2014-02-20T13:44:53Z</time>
      </trkpt>
      <trkpt lat="46.77379" lon="5.61947">
        <ele>395.72</ele>
        <time>2014-02-20T13:45:05Z</time>
      </trkpt>
      <trkpt lat="46.77383" lon="5.61926">
        <ele>396.68</ele>
        <time>2014-02-20T13:45:19Z</time>
      </trkpt>
      <trkpt lat="46.77383" lon="5.61923">
        <ele>397.16</ele>
        <time>2014-02-20T13:45:21Z</time>
      </trkpt>
      <trkpt lat="46.77389" lon="5.61907">
        <ele>396.68</ele>
        <time>2014-02-20T13:45:32Z</time>
      </trkpt>
      <trkpt lat="46.77395" lon="5.61887">
        <ele>397.16</ele>
        <time>2014-02-20T13:45:45Z</time>
      </trkpt>
      <trkpt lat="46.77395" lon="5.61885">
        <ele>397.16</ele>
        <time>2014-02-20T13:45:47Z</time>
      </trkpt>
      <trkpt lat="46.774" lon="5.61868">
        <ele>397.16</ele>
        <time>2014-02-20T13:45:58Z</time>
      </trkpt>
      <trkpt lat="46.77405" lon="5.61851">
        <ele>397.64</ele>
        <time>2014-02-20T13:46:12Z</time>
      </trkpt>
      <trkpt lat="46.77406" lon="5.61844">
        <ele>399.08</ele>
        <time>2014-02-20T13:46:23Z</time>
      </trkpt>
      <trkpt lat="46.77406" lon="5.61842">
        <ele>398.6</ele>
        <time>2014-02-20T13:46:40Z</time>
      </trkpt>
      <trkpt lat="46.77406" lon="5.61842">
        <ele>398.6</ele>
        <time>2014-02-20T13:46:59Z</time>
      </trkpt>
      <trkpt lat="46.77405" lon="5.61842">
        <ele>399.08</ele>
        <time>2014-02-20T13:47:23Z</time>
      </trkpt>
      <trkpt lat="46.77407" lon="5.61842">
        <ele>399.08</ele>
        <time>2014-02-20T13:47:38Z</time>
      </trkpt>
      <trkpt lat="46.77407" lon="5.61842">
        <ele>399.08</ele>
        <time>2014-02-20T13:47:43Z</time>
      </trkpt>
      <trkpt lat="46.77408" lon="5.61837">
        <ele>399.08</ele>
        <time>2014-02-20T13:47:47Z</time>
      </trkpt>
      <trkpt lat="46.77409" lon="5.61824">
        <ele>399.57</ele>
        <time>2014-02-20T13:47:57Z</time>
      </trkpt>
      <trkpt lat="46.77407" lon="5.61813">
        <ele>399.08</ele>
        <time>2014-02-20T13:48:09Z</time>
      </trkpt>
      <trkpt lat="46.77404" lon="5.61813">
        <ele>398.12</ele>
        <time>2014-02-20T13:48:14Z</time>
      </trkpt>
      <trkpt lat="46.77389" lon="5.61817">
        <ele>397.64</ele>
        <time>2014-02-20T13:48:28Z</time>
      </trkpt>
      <trkpt lat="46.77387" lon="5.61817">
        <ele>397.64</ele>
        <time>2014-02-20T13:48:30Z</time>
      </trkpt>
      <trkpt lat="46.77378" lon="5.61822">
        <ele>397.16</ele>
        <time>2014-02-20T13:48:38Z</time>
      </trkpt>
      <trkpt lat="46.77376" lon="5.61822">
        <ele>397.16</ele>
        <time>2014-02-20T13:48:40Z</time>
      </trkpt>
      <trkpt lat="46.77355" lon="5.61833">
        <ele>395.24</ele>
        <time>2014-02-20T13:48:56Z</time>
      </trkpt>
      <trkpt lat="46.7734" lon="5.61837">
        <ele>394.28</ele>
        <time>2014-02-20T13:49:09Z</time>
      </trkpt>
      <trkpt lat="46.77322" lon="5.61844">
        <ele>393.32</ele>
        <time>2014-02-20T13:49:24Z</time>
      </trkpt>
      <trkpt lat="46.77309" lon="5.61847">
        <ele>392.84</ele>
        <time>2014-02-20T13:49:35Z</time>
      </trkpt>
      <trkpt lat="46.77304" lon="5.61847">
        <ele>392.84</ele>
        <time>2014-02-20T13:49:39Z</time>
      </trkpt>
      <trkpt lat="46.77287" lon="5.61849">
        <ele>391.87</ele>
        <time>2014-02-20T13:49:53Z</time>
      </trkpt>
      <trkpt lat="46.77269" lon="5.6185">
        <ele>389.95</ele>
        <time>2014-02-20T13:50:06Z</time>
      </trkpt>
      <trkpt lat="46.77244" lon="5.61849">
        <ele>387.55</ele>
        <time>2014-02-20T13:50:24Z</time>
      </trkpt>
      <trkpt lat="46.77228" lon="5.61849">
        <ele>386.11</ele>
        <time>2014-02-20T13:50:37Z</time>
      </trkpt>
      <trkpt lat="46.77219" lon="5.61849">
        <ele>385.63</ele>
        <time>2014-02-20T13:50:44Z</time>
      </trkpt>
      <trkpt lat="46.77215" lon="5.61848">
        <ele>385.63</ele>
        <time>2014-02-20T13:50:47Z</time>
      </trkpt>
      <trkpt lat="46.77209" lon="5.6185">
        <ele>384.66</ele>
        <time>2014-02-20T13:50:52Z</time>
      </trkpt>
      <trkpt lat="46.77202" lon="5.61851">
        <ele>384.18</ele>
        <time>2014-02-20T13:50:57Z</time>
      </trkpt>
      <trkpt lat="46.77192" lon="5.61854">
        <ele>383.7</ele>
        <time>2014-02-20T13:51:05Z</time>
      </trkpt>
      <trkpt lat="46.77178" lon="5.61859">
        <ele>383.22</ele>
        <time>2014-02-20T13:51:16Z</time>
      </trkpt>
      <trkpt lat="46.77168" lon="5.61864">
        <ele>383.7</ele>
        <time>2014-02-20T13:51:24Z</time>
      </trkpt>
      <trkpt lat="46.77153" lon="5.6187">
        <ele>383.7</ele>
        <time>2014-02-20T13:51:37Z</time>
      </trkpt>
      <trkpt lat="46.77137" lon="5.61877">
        <ele>381.78</ele>
        <time>2014-02-20T13:51:50Z</time>
      </trkpt>
      <trkpt lat="46.77123" lon="5.61883">
        <ele>381.78</ele>
        <time>2014-02-20T13:52:03Z</time>
      </trkpt>
      <trkpt lat="46.77122" lon="5.61884">
        <ele>382.26</ele>
        <time>2014-02-20T13:52:04Z</time>
      </trkpt>
      <trkpt lat="46.77106" lon="5.61886">
        <ele>382.26</ele>
        <time>2014-02-20T13:52:17Z</time>
      </trkpt>
      <trkpt lat="46.77089" lon="5.6189">
        <ele>381.3</ele>
        <time>2014-02-20T13:52:31Z</time>
      </trkpt>
      <trkpt lat="46.77072" lon="5.61893">
        <ele>382.26</ele>
        <time>2014-02-20T13:52:46Z</time>
      </trkpt>
      <trkpt lat="46.77056" lon="5.61897">
        <ele>382.74</ele>
        <time>2014-02-20T13:53:01Z</time>
      </trkpt>
      <trkpt lat="46.77044" lon="5.61899">
        <ele>384.66</ele>
        <time>2014-02-20T13:53:14Z</time>
      </trkpt>
      <trkpt lat="46.7703" lon="5.61903">
        <ele>389.47</ele>
        <time>2014-02-20T13:53:27Z</time>
      </trkpt>
      <trkpt lat="46.77014" lon="5.61906">
        <ele>393.32</ele>
        <time>2014-02-20T13:53:42Z</time>
      </trkpt>
      <trkpt lat="46.76995" lon="5.61907">
        <ele>395.24</ele>
        <time>2014-02-20T13:53:57Z</time>
      </trkpt>
      <trkpt lat="46.76992" lon="5.61898">
        <ele>393.32</ele>
        <time>2014-02-20T13:54:05Z</time>
      </trkpt>
      <trkpt lat="46.76991" lon="5.61894">
        <ele>393.32</ele>
        <time>2014-02-20T13:54:08Z</time>
      </trkpt>
      <trkpt lat="46.76988" lon="5.61875">
        <ele>392.84</ele>
        <time>2014-02-20T13:54:22Z</time>
      </trkpt>
      <trkpt lat="46.76987" lon="5.61869">
        <ele>392.84</ele>
        <time>2014-02-20T13:54:26Z</time>
      </trkpt>
      <trkpt lat="46.76984" lon="5.61855">
        <ele>394.28</ele>
        <time>2014-02-20T13:54:41Z</time>
      </trkpt>
      <trkpt lat="46.76985" lon="5.61854">
        <ele>393.32</ele>
        <time>2014-02-20T13:55:15Z</time>
      </trkpt>
      <trkpt lat="46.76985" lon="5.61854">
        <ele>393.32</ele>
        <time>2014-02-20T13:55:58Z</time>
      </trkpt>
      <trkpt lat="46.76985" lon="5.61853">
        <ele>392.36</ele>
        <time>2014-02-20T13:56:17Z</time>
      </trkpt>
      <trkpt lat="46.76985" lon="5.61852">
        <ele>391.87</ele>
        <time>2014-02-20T13:56:54Z</time>
      </trkpt>
      <trkpt lat="46.76985" lon="5.61852">
        <ele>391.87</ele>
        <time>2014-02-20T13:57:13Z</time>
      </trkpt>
      <trkpt lat="46.76985" lon="5.61852">
        <ele>390.91</ele>
        <time>2014-02-20T13:57:33Z</time>
      </trkpt>
      <trkpt lat="46.76985" lon="5.61851">
        <ele>390.43</ele>
        <time>2014-02-20T13:58:06Z</time>
      </trkpt>
      <trkpt lat="46.76985" lon="5.61849">
        <ele>389.95</ele>
        <time>2014-02-20T13:58:41Z</time>
      </trkpt>
      <trkpt lat="46.76985" lon="5.61848">
        <ele>388.99</ele>
        <time>2014-02-20T13:59:41Z</time>
      </trkpt>
      <trkpt lat="46.76988" lon="5.61849">
        <ele>388.03</ele>
        <time>2014-02-20T13:59:52Z</time>
      </trkpt>
      <trkpt lat="46.76988" lon="5.61848">
        <ele>387.55</ele>
        <time>2014-02-20T14:00:33Z</time>
      </trkpt>
      <trkpt lat="46.76988" lon="5.61848">
        <ele>387.55</ele>
        <time>2014-02-20T14:01:03Z</time>
      </trkpt>
      <trkpt lat="46.76989" lon="5.61843">
        <ele>386.59</ele>
        <time>2014-02-20T14:01:30Z</time>
      </trkpt>
      <trkpt lat="46.76989" lon="5.61826">
        <ele>384.66</ele>
        <time>2014-02-20T14:01:39Z</time>
      </trkpt>
      <trkpt lat="46.76988" lon="5.618">
        <ele>379.86</ele>
        <time>2014-02-20T14:01:56Z</time>
      </trkpt>
      <trkpt lat="46.76988" lon="5.61788">
        <ele>378.9</ele>
        <time>2014-02-20T14:02:04Z</time>
      </trkpt>
      <trkpt lat="46.76989" lon="5.61776">
        <ele>377.45</ele>
        <time>2014-02-20T14:02:09Z</time>
      </trkpt>
      <trkpt lat="46.7699" lon="5.61772">
        <ele>376.97</ele>
        <time>2014-02-20T14:02:12Z</time>
      </trkpt>
      <trkpt lat="46.76992" lon="5.61771">
        <ele>375.53</ele>
        <time>2014-02-20T14:02:15Z</time>
      </trkpt>
      <trkpt lat="46.76996" lon="5.61758">
        <ele>373.13</ele>
        <time>2014-02-20T14:02:28Z</time>
      </trkpt>
      <trkpt lat="46.77005" lon="5.61744">
        <ele>371.21</ele>
        <time>2014-02-20T14:02:40Z</time>
      </trkpt>
      <trkpt lat="46.77007" lon="5.61741">
        <ele>370.73</ele>
        <time>2014-02-20T14:02:46Z</time>
      </trkpt>
      <trkpt lat="46.7701" lon="5.61735">
        <ele>370.73</ele>
        <time>2014-02-20T14:02:52Z</time>
      </trkpt>
      <trkpt lat="46.77016" lon="5.61724">
        <ele>369.76</ele>
        <time>2014-02-20T14:03:01Z</time>
      </trkpt>
      <trkpt lat="46.77021" lon="5.61713">
        <ele>369.76</ele>
        <time>2014-02-20T14:03:13Z</time>
      </trkpt>
      <trkpt lat="46.77021" lon="5.61704">
        <ele>371.69</ele>
        <time>2014-02-20T14:03:22Z</time>
      </trkpt>
      <trkpt lat="46.77014" lon="5.61692">
        <ele>375.53</ele>
        <time>2014-02-20T14:03:33Z</time>
      </trkpt>
      <trkpt lat="46.77005" lon="5.61681">
        <ele>376.97</ele>
        <time>2014-02-20T14:03:44Z</time>
      </trkpt>
      <trkpt lat="46.77001" lon="5.61673">
        <ele>375.53</ele>
        <time>2014-02-20T14:03:49Z</time>
      </trkpt>
      <trkpt lat="46.76989" lon="5.61662">
        <ele>376.01</ele>
        <time>2014-02-20T14:03:58Z</time>
      </trkpt>
      <trkpt lat="46.7698" lon="5.61653">
        <ele>374.57</ele>
        <time>2014-02-20T14:04:11Z</time>
      </trkpt>
      <trkpt lat="46.76978" lon="5.61653">
        <ele>374.09</ele>
        <time>2014-02-20T14:04:13Z</time>
      </trkpt>
      <trkpt lat="46.76971" lon="5.61646">
        <ele>372.65</ele>
        <time>2014-02-20T14:04:23Z</time>
      </trkpt>
      <trkpt lat="46.76966" lon="5.61642">
        <ele>371.69</ele>
        <time>2014-02-20T14:04:32Z</time>
      </trkpt>
      <trkpt lat="46.76958" lon="5.61636">
        <ele>369.76</ele>
        <time>2014-02-20T14:04:38Z</time>
      </trkpt>
      <trkpt lat="46.76949" lon="5.61629">
        <ele>367.84</ele>
        <time>2014-02-20T14:04:48Z</time>
      </trkpt>
      <trkpt lat="46.76943" lon="5.61624">
        <ele>367.36</ele>
        <time>2014-02-20T14:04:57Z</time>
      </trkpt>
      <trkpt lat="46.76937" lon="5.61618">
        <ele>364</ele>
        <time>2014-02-20T14:05:07Z</time>
      </trkpt>
      <trkpt lat="46.76928" lon="5.61609">
        <ele>363.04</ele>
        <time>2014-02-20T14:05:20Z</time>
      </trkpt>
      <trkpt lat="46.76918" lon="5.61599">
        <ele>359.19</ele>
        <time>2014-02-20T14:05:30Z</time>
      </trkpt>
      <trkpt lat="46.76913" lon="5.61598">
        <ele>357.75</ele>
        <time>2014-02-20T14:05:34Z</time>
      </trkpt>
      <trkpt lat="46.76925" lon="5.61594">
        <ele>354.38</ele>
        <time>2014-02-20T14:05:49Z</time>
      </trkpt>
      <trkpt lat="46.76938" lon="5.61592">
        <ele>352.94</ele>
        <time>2014-02-20T14:06:02Z</time>
      </trkpt>
      <trkpt lat="46.76955" lon="5.61589">
        <ele>350.54</ele>
        <time>2014-02-20T14:06:18Z</time>
      </trkpt>
      <trkpt lat="46.76968" lon="5.61586">
        <ele>349.1</ele>
        <time>2014-02-20T14:06:30Z</time>
      </trkpt>
      <trkpt lat="46.76978" lon="5.61584">
        <ele>348.13</ele>
        <time>2014-02-20T14:06:38Z</time>
      </trkpt>
      <trkpt lat="46.76987" lon="5.61582">
        <ele>347.17</ele>
        <time>2014-02-20T14:06:46Z</time>
      </trkpt>
      <trkpt lat="46.77004" lon="5.6158">
        <ele>345.73</ele>
        <time>2014-02-20T14:07:00Z</time>
      </trkpt>
      <trkpt lat="46.7702" lon="5.61579">
        <ele>346.21</ele>
        <time>2014-02-20T14:07:13Z</time>
      </trkpt>
      <trkpt lat="46.77033" lon="5.61581">
        <ele>344.77</ele>
        <time>2014-02-20T14:07:24Z</time>
      </trkpt>
      <trkpt lat="46.77037" lon="5.61583">
        <ele>344.77</ele>
        <time>2014-02-20T14:07:28Z</time>
      </trkpt>
      <trkpt lat="46.77053" lon="5.6158">
        <ele>346.69</ele>
        <time>2014-02-20T14:07:42Z</time>
      </trkpt>
      <trkpt lat="46.77054" lon="5.6158">
        <ele>346.69</ele>
        <time>2014-02-20T14:07:43Z</time>
      </trkpt>
      <trkpt lat="46.77062" lon="5.61573">
        <ele>344.29</ele>
        <time>2014-02-20T14:07:52Z</time>
      </trkpt>
      <trkpt lat="46.77065" lon="5.6155">
        <ele>342.37</ele>
        <time>2014-02-20T14:08:05Z</time>
      </trkpt>
      <trkpt lat="46.77065" lon="5.61535">
        <ele>341.41</ele>
        <time>2014-02-20T14:08:12Z</time>
      </trkpt>
      <trkpt lat="46.77066" lon="5.61528">
        <ele>340.92</ele>
        <time>2014-02-20T14:08:16Z</time>
      </trkpt>
      <trkpt lat="46.77067" lon="5.61516">
        <ele>340.44</ele>
        <time>2014-02-20T14:08:25Z</time>
      </trkpt>
      <trkpt lat="46.77066" lon="5.61508">
        <ele>339</ele>
        <time>2014-02-20T14:08:30Z</time>
      </trkpt>
      <trkpt lat="46.77066" lon="5.61502">
        <ele>337.56</ele>
        <time>2014-02-20T14:08:34Z</time>
      </trkpt>
      <trkpt lat="46.77063" lon="5.61495">
        <ele>336.6</ele>
        <time>2014-02-20T14:08:41Z</time>
      </trkpt>
      <trkpt lat="46.77061" lon="5.61494">
        <ele>336.12</ele>
        <time>2014-02-20T14:08:43Z</time>
      </trkpt>
      <trkpt lat="46.77053" lon="5.61486">
        <ele>333.71</ele>
        <time>2014-02-20T14:08:55Z</time>
      </trkpt>
      <trkpt lat="46.77043" lon="5.61481">
        <ele>332.27</ele>
        <time>2014-02-20T14:09:05Z</time>
      </trkpt>
      <trkpt lat="46.7704" lon="5.6148">
        <ele>331.79</ele>
        <time>2014-02-20T14:09:08Z</time>
      </trkpt>
      <trkpt lat="46.77036" lon="5.61477">
        <ele>331.79</ele>
        <time>2014-02-20T14:09:12Z</time>
      </trkpt>
      <trkpt lat="46.77035" lon="5.61475">
        <ele>331.79</ele>
        <time>2014-02-20T14:09:14Z</time>
      </trkpt>
      <trkpt lat="46.77023" lon="5.61468">
        <ele>331.31</ele>
        <time>2014-02-20T14:09:26Z</time>
      </trkpt>
      <trkpt lat="46.77021" lon="5.61468">
        <ele>331.31</ele>
        <time>2014-02-20T14:09:28Z</time>
      </trkpt>
      <trkpt lat="46.7701" lon="5.61461">
        <ele>332.27</ele>
        <time>2014-02-20T14:09:39Z</time>
      </trkpt>
      <trkpt lat="46.77" lon="5.61454">
        <ele>331.79</ele>
        <time>2014-02-20T14:09:51Z</time>
      </trkpt>
      <trkpt lat="46.76991" lon="5.61451">
        <ele>332.75</ele>
        <time>2014-02-20T14:09:58Z</time>
      </trkpt>
      <trkpt lat="46.76977" lon="5.61445">
        <ele>329.39</ele>
        <time>2014-02-20T14:10:10Z</time>
      </trkpt>
      <trkpt lat="46.76975" lon="5.61444">
        <ele>329.39</ele>
        <time>2014-02-20T14:10:12Z</time>
      </trkpt>
      <trkpt lat="46.76966" lon="5.61439">
        <ele>329.39</ele>
        <time>2014-02-20T14:10:20Z</time>
      </trkpt>
      <trkpt lat="46.7695" lon="5.61432">
        <ele>326.5</ele>
        <time>2014-02-20T14:10:33Z</time>
      </trkpt>
      <trkpt lat="46.76938" lon="5.61429">
        <ele>326.02</ele>
        <time>2014-02-20T14:10:44Z</time>
      </trkpt>
      <trkpt lat="46.76927" lon="5.61424">
        <ele>326.02</ele>
        <time>2014-02-20T14:10:54Z</time>
      </trkpt>
      <trkpt lat="46.76922" lon="5.61421">
        <ele>325.54</ele>
        <time>2014-02-20T14:11:00Z</time>
      </trkpt>
      <trkpt lat="46.76909" lon="5.61413">
        <ele>323.14</ele>
        <time>2014-02-20T14:11:13Z</time>
      </trkpt>
      <trkpt lat="46.76898" lon="5.61404">
        <ele>319.78</ele>
        <time>2014-02-20T14:11:25Z</time>
      </trkpt>
      <trkpt lat="46.7689" lon="5.61396">
        <ele>316.41</ele>
        <time>2014-02-20T14:11:36Z</time>
      </trkpt>
      <trkpt lat="46.76885" lon="5.6139">
        <ele>312.57</ele>
        <time>2014-02-20T14:11:44Z</time>
      </trkpt>
      <trkpt lat="46.76875" lon="5.61378">
        <ele>308.24</ele>
        <time>2014-02-20T14:11:57Z</time>
      </trkpt>
      <trkpt lat="46.76864" lon="5.61366">
        <ele>304.39</ele>
        <time>2014-02-20T14:12:08Z</time>
      </trkpt>
      <trkpt lat="46.76863" lon="5.61365">
        <ele>303.91</ele>
        <time>2014-02-20T14:12:10Z</time>
      </trkpt>
      <trkpt lat="46.76855" lon="5.61354">
        <ele>301.99</ele>
        <time>2014-02-20T14:12:21Z</time>
      </trkpt>
      <trkpt lat="46.76849" lon="5.61347">
        <ele>300.55</ele>
        <time>2014-02-20T14:12:27Z</time>
      </trkpt>
      <trkpt lat="46.76845" lon="5.61342">
        <ele>301.03</ele>
        <time>2014-02-20T14:12:33Z</time>
      </trkpt>
      <trkpt lat="46.76835" lon="5.61324">
        <ele>298.63</ele>
        <time>2014-02-20T14:12:46Z</time>
      </trkpt>
      <trkpt lat="46.76827" lon="5.61306">
        <ele>295.26</ele>
        <time>2014-02-20T14:12:58Z</time>
      </trkpt>
      <trkpt lat="46.76817" lon="5.61288">
        <ele>293.34</ele>
        <time>2014-02-20T14:13:10Z</time>
      </trkpt>
      <trkpt lat="46.76814" lon="5.61282">
        <ele>292.86</ele>
        <time>2014-02-20T14:13:14Z</time>
      </trkpt>
      <trkpt lat="46.76812" lon="5.61275">
        <ele>293.34</ele>
        <time>2014-02-20T14:13:18Z</time>
      </trkpt>
      <trkpt lat="46.7681" lon="5.61269">
        <ele>293.82</ele>
        <time>2014-02-20T14:13:22Z</time>
      </trkpt>
      <trkpt lat="46.76808" lon="5.61264">
        <ele>293.34</ele>
        <time>2014-02-20T14:13:26Z</time>
      </trkpt>
      <trkpt lat="46.76803" lon="5.61253">
        <ele>293.82</ele>
        <time>2014-02-20T14:13:32Z</time>
      </trkpt>
      <trkpt lat="46.76795" lon="5.61235">
        <ele>292.86</ele>
        <time>2014-02-20T14:13:46Z</time>
      </trkpt>
      <trkpt lat="46.76786" lon="5.61218">
        <ele>290.94</ele>
        <time>2014-02-20T14:13:59Z</time>
      </trkpt>
      <trkpt lat="46.76784" lon="5.61215">
        <ele>290.94</ele>
        <time>2014-02-20T14:14:01Z</time>
      </trkpt>
      <trkpt lat="46.7678" lon="5.61208">
        <ele>289.97</ele>
        <time>2014-02-20T14:14:07Z</time>
      </trkpt>
      <trkpt lat="46.76775" lon="5.61202">
        <ele>290.46</ele>
        <time>2014-02-20T14:14:13Z</time>
      </trkpt>
      <trkpt lat="46.76774" lon="5.61198">
        <ele>289.97</ele>
        <time>2014-02-20T14:14:16Z</time>
      </trkpt>
      <trkpt lat="46.76765" lon="5.61181">
        <ele>289.01</ele>
        <time>2014-02-20T14:14:30Z</time>
      </trkpt>
      <trkpt lat="46.76755" lon="5.61163">
        <ele>287.57</ele>
        <time>2014-02-20T14:14:44Z</time>
      </trkpt>
      <trkpt lat="46.76746" lon="5.61149">
        <ele>285.65</ele>
        <time>2014-02-20T14:14:56Z</time>
      </trkpt>
      <trkpt lat="46.76736" lon="5.61132">
        <ele>283.73</ele>
        <time>2014-02-20T14:15:09Z</time>
      </trkpt>
      <trkpt lat="46.7673" lon="5.61121">
        <ele>282.77</ele>
        <time>2014-02-20T14:15:18Z</time>
      </trkpt>
      <trkpt lat="46.7672" lon="5.61107">
        <ele>280.84</ele>
        <time>2014-02-20T14:15:30Z</time>
      </trkpt>
      <trkpt lat="46.76717" lon="5.61102">
        <ele>280.84</ele>
        <time>2014-02-20T14:15:34Z</time>
      </trkpt>
      <trkpt lat="46.76708" lon="5.61087">
        <ele>279.4</ele>
        <time>2014-02-20T14:15:46Z</time>
      </trkpt>
      <trkpt lat="46.76704" lon="5.61081">
        <ele>278.92</ele>
        <time>2014-02-20T14:15:51Z</time>
      </trkpt>
      <trkpt lat="46.76692" lon="5.6106">
        <ele>277.96</ele>
        <time>2014-02-20T14:16:06Z</time>
      </trkpt>
      <trkpt lat="46.76689" lon="5.61055">
        <ele>277.96</ele>
        <time>2014-02-20T14:16:10Z</time>
      </trkpt>
      <trkpt lat="46.76687" lon="5.61053">
        <ele>277.96</ele>
        <time>2014-02-20T14:16:12Z</time>
      </trkpt>
      <trkpt lat="46.76684" lon="5.61039">
        <ele>278.44</ele>
        <time>2014-02-20T14:16:21Z</time>
      </trkpt>
      <trkpt lat="46.76683" lon="5.61031">
        <ele>277.96</ele>
        <time>2014-02-20T14:16:26Z</time>
      </trkpt>
      <trkpt lat="46.76683" lon="5.61023">
        <ele>277.96</ele>
        <time>2014-02-20T14:16:31Z</time>
      </trkpt>
      <trkpt lat="46.76683" lon="5.61019">
        <ele>277.96</ele>
        <time>2014-02-20T14:16:34Z</time>
      </trkpt>
      <trkpt lat="46.76683" lon="5.61016">
        <ele>277.96</ele>
        <time>2014-02-20T14:16:37Z</time>
      </trkpt>
      <trkpt lat="46.76682" lon="5.61013">
        <ele>277.96</ele>
        <time>2014-02-20T14:16:39Z</time>
      </trkpt>
      <trkpt lat="46.76682" lon="5.61001">
        <ele>278.92</ele>
        <time>2014-02-20T14:16:47Z</time>
      </trkpt>
      <trkpt lat="46.76681" lon="5.60977">
        <ele>280.36</ele>
        <time>2014-02-20T14:17:03Z</time>
      </trkpt>
      <trkpt lat="46.76679" lon="5.60957">
        <ele>283.73</ele>
        <time>2014-02-20T14:17:18Z</time>
      </trkpt>
      <trkpt lat="46.76678" lon="5.60944">
        <ele>286.13</ele>
        <time>2014-02-20T14:17:28Z</time>
      </trkpt>
      <trkpt lat="46.76676" lon="5.60928">
        <ele>289.97</ele>
        <time>2014-02-20T14:17:41Z</time>
      </trkpt>
      <trkpt lat="46.76676" lon="5.60922">
        <ele>291.42</ele>
        <time>2014-02-20T14:17:46Z</time>
      </trkpt>
      <trkpt lat="46.76676" lon="5.60913">
        <ele>293.34</ele>
        <time>2014-02-20T14:17:53Z</time>
      </trkpt>
      <trkpt lat="46.76677" lon="5.60895">
        <ele>296.22</ele>
        <time>2014-02-20T14:18:05Z</time>
      </trkpt>
      <trkpt lat="46.76676" lon="5.60879">
        <ele>298.63</ele>
        <time>2014-02-20T14:18:17Z</time>
      </trkpt>
      <trkpt lat="46.76675" lon="5.60874">
        <ele>299.11</ele>
        <time>2014-02-20T14:18:20Z</time>
      </trkpt>
      <trkpt lat="46.76675" lon="5.60853">
        <ele>299.59</ele>
        <time>2014-02-20T14:18:32Z</time>
      </trkpt>
      <trkpt lat="46.76675" lon="5.60848">
        <ele>299.11</ele>
        <time>2014-02-20T14:18:35Z</time>
      </trkpt>
      <trkpt lat="46.76675" lon="5.60842">
        <ele>299.59</ele>
        <time>2014-02-20T14:18:40Z</time>
      </trkpt>
      <trkpt lat="46.76676" lon="5.60825">
        <ele>303.91</ele>
        <time>2014-02-20T14:18:53Z</time>
      </trkpt>
      <trkpt lat="46.76675" lon="5.60809">
        <ele>306.8</ele>
        <time>2014-02-20T14:19:06Z</time>
      </trkpt>
      <trkpt lat="46.76675" lon="5.60796">
        <ele>304.88</ele>
        <time>2014-02-20T14:19:16Z</time>
      </trkpt>
      <trkpt lat="46.76675" lon="5.60776">
        <ele>302.95</ele>
        <time>2014-02-20T14:19:28Z</time>
      </trkpt>
      <trkpt lat="46.76674" lon="5.60762">
        <ele>303.43</ele>
        <time>2014-02-20T14:19:37Z</time>
      </trkpt>
      <trkpt lat="46.76674" lon="5.60757">
        <ele>303.43</ele>
        <time>2014-02-20T14:19:40Z</time>
      </trkpt>
      <trkpt lat="46.76673" lon="5.60747">
        <ele>302.95</ele>
        <time>2014-02-20T14:19:46Z</time>
      </trkpt>
      <trkpt lat="46.76673" lon="5.6073">
        <ele>305.84</ele>
        <time>2014-02-20T14:19:59Z</time>
      </trkpt>
      <trkpt lat="46.76673" lon="5.60723">
        <ele>306.8</ele>
        <time>2014-02-20T14:20:04Z</time>
      </trkpt>
      <trkpt lat="46.76672" lon="5.60719">
        <ele>306.8</ele>
        <time>2014-02-20T14:20:06Z</time>
      </trkpt>
      <trkpt lat="46.76671" lon="5.60716">
        <ele>307.28</ele>
        <time>2014-02-20T14:20:08Z</time>
      </trkpt>
      <trkpt lat="46.7667" lon="5.60704">
        <ele>306.32</ele>
        <time>2014-02-20T14:20:15Z</time>
      </trkpt>
      <trkpt lat="46.76666" lon="5.60703">
        <ele>307.28</ele>
        <time>2014-02-20T14:20:21Z</time>
      </trkpt>
      <trkpt lat="46.76659" lon="5.60701">
        <ele>308.72</ele>
        <time>2014-02-20T14:20:32Z</time>
      </trkpt>
      <trkpt lat="46.76657" lon="5.60699">
        <ele>307.28</ele>
        <time>2014-02-20T14:20:40Z</time>
      </trkpt>
      <trkpt lat="46.76656" lon="5.60699">
        <ele>307.28</ele>
        <time>2014-02-20T14:20:41Z</time>
      </trkpt>
      <trkpt lat="46.76647" lon="5.60702">
        <ele>307.28</ele>
        <time>2014-02-20T14:20:52Z</time>
      </trkpt>
      <trkpt lat="46.76637" lon="5.60704">
        <ele>301.03</ele>
        <time>2014-02-20T14:21:04Z</time>
      </trkpt>
      <trkpt lat="46.76629" lon="5.60703">
        <ele>293.82</ele>
        <time>2014-02-20T14:21:15Z</time>
      </trkpt>
      <trkpt lat="46.76622" lon="5.60703">
        <ele>291.42</ele>
        <time>2014-02-20T14:21:22Z</time>
      </trkpt>
      <trkpt lat="46.76614" lon="5.6069">
        <ele>279.88</ele>
        <time>2014-02-20T14:21:32Z</time>
      </trkpt>
      <trkpt lat="46.76604" lon="5.60687">
        <ele>274.59</ele>
        <time>2014-02-20T14:21:39Z</time>
      </trkpt>
      <trkpt lat="46.76598" lon="5.60685">
        <ele>272.67</ele>
        <time>2014-02-20T14:21:43Z</time>
      </trkpt>
      <trkpt lat="46.76591" lon="5.60683">
        <ele>272.19</ele>
        <time>2014-02-20T14:21:46Z</time>
      </trkpt>
      <trkpt lat="46.76578" lon="5.60669">
        <ele>269.31</ele>
        <time>2014-02-20T14:21:58Z</time>
      </trkpt>
      <trkpt lat="46.76571" lon="5.6066">
        <ele>268.83</ele>
        <time>2014-02-20T14:22:05Z</time>
      </trkpt>
      <trkpt lat="46.76563" lon="5.60641">
        <ele>264.5</ele>
        <time>2014-02-20T14:22:17Z</time>
      </trkpt>
      <trkpt lat="46.76559" lon="5.60627">
        <ele>264.98</ele>
        <time>2014-02-20T14:22:27Z</time>
      </trkpt>
      <trkpt lat="46.76558" lon="5.60623">
        <ele>265.94</ele>
        <time>2014-02-20T14:22:30Z</time>
      </trkpt>
      <trkpt lat="46.76547" lon="5.60607">
        <ele>272.19</ele>
        <time>2014-02-20T14:22:45Z</time>
      </trkpt>
      <trkpt lat="46.76545" lon="5.60601">
        <ele>273.63</ele>
        <time>2014-02-20T14:22:48Z</time>
      </trkpt>
      <trkpt lat="46.76544" lon="5.6059">
        <ele>277.96</ele>
        <time>2014-02-20T14:22:56Z</time>
      </trkpt>
      <trkpt lat="46.76545" lon="5.60585">
        <ele>280.36</ele>
        <time>2014-02-20T14:23:01Z</time>
      </trkpt>
      <trkpt lat="46.76547" lon="5.60579">
        <ele>282.28</ele>
        <time>2014-02-20T14:23:06Z</time>
      </trkpt>
      <trkpt lat="46.76554" lon="5.60563">
        <ele>284.69</ele>
        <time>2014-02-20T14:23:18Z</time>
      </trkpt>
      <trkpt lat="46.7656" lon="5.60541">
        <ele>287.57</ele>
        <time>2014-02-20T14:23:33Z</time>
      </trkpt>
      <trkpt lat="46.76568" lon="5.60523">
        <ele>289.97</ele>
        <time>2014-02-20T14:23:47Z</time>
      </trkpt>
      <trkpt lat="46.76574" lon="5.60509">
        <ele>294.78</ele>
        <time>2014-02-20T14:24:00Z</time>
      </trkpt>
      <trkpt lat="46.7658" lon="5.60493">
        <ele>296.7</ele>
        <time>2014-02-20T14:24:12Z</time>
      </trkpt>
      <trkpt lat="46.76586" lon="5.60478">
        <ele>301.99</ele>
        <time>2014-02-20T14:24:25Z</time>
      </trkpt>
      <trkpt lat="46.76591" lon="5.60461">
        <ele>306.8</ele>
        <time>2014-02-20T14:24:38Z</time>
      </trkpt>
      <trkpt lat="46.766" lon="5.60441">
        <ele>309.68</ele>
        <time>2014-02-20T14:24:52Z</time>
      </trkpt>
      <trkpt lat="46.76609" lon="5.60415">
        <ele>309.2</ele>
        <time>2014-02-20T14:25:06Z</time>
      </trkpt>
      <trkpt lat="46.76618" lon="5.60388">
        <ele>301.51</ele>
        <time>2014-02-20T14:25:21Z</time>
      </trkpt>
      <trkpt lat="46.76626" lon="5.60367">
        <ele>298.15</ele>
        <time>2014-02-20T14:25:33Z</time>
      </trkpt>
      <trkpt lat="46.76632" lon="5.60345">
        <ele>295.74</ele>
        <time>2014-02-20T14:25:45Z</time>
      </trkpt>
      <trkpt lat="46.76641" lon="5.60312">
        <ele>289.01</ele>
        <time>2014-02-20T14:26:00Z</time>
      </trkpt>
      <trkpt lat="46.7665" lon="5.60282">
        <ele>282.77</ele>
        <time>2014-02-20T14:26:15Z</time>
      </trkpt>
      <trkpt lat="46.76657" lon="5.60255">
        <ele>279.88</ele>
        <time>2014-02-20T14:26:30Z</time>
      </trkpt>
      <trkpt lat="46.76665" lon="5.6023">
        <ele>277.96</ele>
        <time>2014-02-20T14:26:44Z</time>
      </trkpt>
      <trkpt lat="46.76667" lon="5.60224">
        <ele>276.52</ele>
        <time>2014-02-20T14:26:47Z</time>
      </trkpt>
      <trkpt lat="46.7667" lon="5.60215">
        <ele>275.07</ele>
        <time>2014-02-20T14:26:52Z</time>
      </trkpt>
      <trkpt lat="46.76672" lon="5.60206">
        <ele>273.15</ele>
        <time>2014-02-20T14:26:56Z</time>
      </trkpt>
      <trkpt lat="46.76673" lon="5.60197">
        <ele>271.23</ele>
        <time>2014-02-20T14:27:00Z</time>
      </trkpt>
      <trkpt lat="46.76675" lon="5.60192">
        <ele>270.27</ele>
        <time>2014-02-20T14:27:03Z</time>
      </trkpt>
      <trkpt lat="46.76678" lon="5.60186">
        <ele>269.31</ele>
        <time>2014-02-20T14:27:07Z</time>
      </trkpt>
      <trkpt lat="46.7668" lon="5.60182">
        <ele>268.83</ele>
        <time>2014-02-20T14:27:10Z</time>
      </trkpt>
      <trkpt lat="46.76686" lon="5.60158">
        <ele>262.58</ele>
        <time>2014-02-20T14:27:20Z</time>
      </trkpt>
      <trkpt lat="46.76688" lon="5.60149">
        <ele>258.25</ele>
        <time>2014-02-20T14:27:22Z</time>
      </trkpt>
      <trkpt lat="46.76694" lon="5.60132">
        <ele>260.65</ele>
        <time>2014-02-20T14:27:36Z</time>
      </trkpt>
      <trkpt lat="46.76697" lon="5.60126">
        <ele>261.62</ele>
        <time>2014-02-20T14:27:42Z</time>
      </trkpt>
      <trkpt lat="46.767" lon="5.60118">
        <ele>262.1</ele>
        <time>2014-02-20T14:27:48Z</time>
      </trkpt>
      <trkpt lat="46.76704" lon="5.60109">
        <ele>262.58</ele>
        <time>2014-02-20T14:27:55Z</time>
      </trkpt>
      <trkpt lat="46.76709" lon="5.60093">
        <ele>266.9</ele>
        <time>2014-02-20T14:28:09Z</time>
      </trkpt>
      <trkpt lat="46.76714" lon="5.60085">
        <ele>269.79</ele>
        <time>2014-02-20T14:28:21Z</time>
      </trkpt>
      <trkpt lat="46.76717" lon="5.6008">
        <ele>268.83</ele>
        <time>2014-02-20T14:28:36Z</time>
      </trkpt>
      <trkpt lat="46.76719" lon="5.60075">
        <ele>267.86</ele>
        <time>2014-02-20T14:28:39Z</time>
      </trkpt>
      <trkpt lat="46.76725" lon="5.60072">
        <ele>267.38</ele>
        <time>2014-02-20T14:28:46Z</time>
      </trkpt>
      <trkpt lat="46.76737" lon="5.60082">
        <ele>264.02</ele>
        <time>2014-02-20T14:29:01Z</time>
      </trkpt>
      <trkpt lat="46.76741" lon="5.60089">
        <ele>262.1</ele>
        <time>2014-02-20T14:29:08Z</time>
      </trkpt>
      <trkpt lat="46.76753" lon="5.60101">
        <ele>259.69</ele>
        <time>2014-02-20T14:29:22Z</time>
      </trkpt>
      <trkpt lat="46.76764" lon="5.60122">
        <ele>261.14</ele>
        <time>2014-02-20T14:29:37Z</time>
      </trkpt>
      <trkpt lat="46.76771" lon="5.60135">
        <ele>264.98</ele>
        <time>2014-02-20T14:29:49Z</time>
      </trkpt>
      <trkpt lat="46.76774" lon="5.60141">
        <ele>267.38</ele>
        <time>2014-02-20T14:29:54Z</time>
      </trkpt>
      <trkpt lat="46.76785" lon="5.60161">
        <ele>268.83</ele>
        <time>2014-02-20T14:30:08Z</time>
      </trkpt>
      <trkpt lat="46.76795" lon="5.60176">
        <ele>268.35</ele>
        <time>2014-02-20T14:30:20Z</time>
      </trkpt>
      <trkpt lat="46.76807" lon="5.60196">
        <ele>267.86</ele>
        <time>2014-02-20T14:30:35Z</time>
      </trkpt>
      <trkpt lat="46.76813" lon="5.60205">
        <ele>267.86</ele>
        <time>2014-02-20T14:30:41Z</time>
      </trkpt>
      <trkpt lat="46.76826" lon="5.60221">
        <ele>269.31</ele>
        <time>2014-02-20T14:30:54Z</time>
      </trkpt>
      <trkpt lat="46.7684" lon="5.60235">
        <ele>268.35</ele>
        <time>2014-02-20T14:31:08Z</time>
      </trkpt>
      <trkpt lat="46.76854" lon="5.60248">
        <ele>268.83</ele>
        <time>2014-02-20T14:31:22Z</time>
      </trkpt>
      <trkpt lat="46.76871" lon="5.60264">
        <ele>266.9</ele>
        <time>2014-02-20T14:31:37Z</time>
      </trkpt>
      <trkpt lat="46.76874" lon="5.60267">
        <ele>266.9</ele>
        <time>2014-02-20T14:31:40Z</time>
      </trkpt>
      <trkpt lat="46.76885" lon="5.60275">
        <ele>268.35</ele>
        <time>2014-02-20T14:31:52Z</time>
      </trkpt>
      <trkpt lat="46.76895" lon="5.60277">
        <ele>271.23</ele>
        <time>2014-02-20T14:32:04Z</time>
      </trkpt>
      <trkpt lat="46.76904" lon="5.60277">
        <ele>274.59</ele>
        <time>2014-02-20T14:32:16Z</time>
      </trkpt>
      <trkpt lat="46.76915" lon="5.60278">
        <ele>276.52</ele>
        <time>2014-02-20T14:32:29Z</time>
      </trkpt>
      <trkpt lat="46.76923" lon="5.60286">
        <ele>279.4</ele>
        <time>2014-02-20T14:32:40Z</time>
      </trkpt>
      <trkpt lat="46.76931" lon="5.60292">
        <ele>280.36</ele>
        <time>2014-02-20T14:32:51Z</time>
      </trkpt>
      <trkpt lat="46.76937" lon="5.60296">
        <ele>282.28</ele>
        <time>2014-02-20T14:33:02Z</time>
      </trkpt>
      <trkpt lat="46.76947" lon="5.60303">
        <ele>283.73</ele>
        <time>2014-02-20T14:33:15Z</time>
      </trkpt>
      <trkpt lat="46.76959" lon="5.60311">
        <ele>284.21</ele>
        <time>2014-02-20T14:33:28Z</time>
      </trkpt>
      <trkpt lat="46.76968" lon="5.60315">
        <ele>285.17</ele>
        <time>2014-02-20T14:33:38Z</time>
      </trkpt>
      <trkpt lat="46.76977" lon="5.60316">
        <ele>286.61</ele>
        <time>2014-02-20T14:33:49Z</time>
      </trkpt>
      <trkpt lat="46.76989" lon="5.60322">
        <ele>286.61</ele>
        <time>2014-02-20T14:33:59Z</time>
      </trkpt>
      <trkpt lat="46.76995" lon="5.60325">
        <ele>286.61</ele>
        <time>2014-02-20T14:34:04Z</time>
      </trkpt>
      <trkpt lat="46.76998" lon="5.60326">
        <ele>286.61</ele>
        <time>2014-02-20T14:34:07Z</time>
      </trkpt>
      <trkpt lat="46.77013" lon="5.60327">
        <ele>285.65</ele>
        <time>2014-02-20T14:34:22Z</time>
      </trkpt>
      <trkpt lat="46.77026" lon="5.6033">
        <ele>286.13</ele>
        <time>2014-02-20T14:34:37Z</time>
      </trkpt>
      <trkpt lat="46.77033" lon="5.6033">
        <ele>287.57</ele>
        <time>2014-02-20T14:34:45Z</time>
      </trkpt>
      <trkpt lat="46.77043" lon="5.60328">
        <ele>289.49</ele>
        <time>2014-02-20T14:34:56Z</time>
      </trkpt>
      <trkpt lat="46.77048" lon="5.60327">
        <ele>289.97</ele>
        <time>2014-02-20T14:35:02Z</time>
      </trkpt>
      <trkpt lat="46.7706" lon="5.60325">
        <ele>292.38</ele>
        <time>2014-02-20T14:35:15Z</time>
      </trkpt>
      <trkpt lat="46.77068" lon="5.60325">
        <ele>293.34</ele>
        <time>2014-02-20T14:35:23Z</time>
      </trkpt>
      <trkpt lat="46.77083" lon="5.60325">
        <ele>292.86</ele>
        <time>2014-02-20T14:35:38Z</time>
      </trkpt>
      <trkpt lat="46.77086" lon="5.60324">
        <ele>292.86</ele>
        <time>2014-02-20T14:35:41Z</time>
      </trkpt>
      <trkpt lat="46.77098" lon="5.60325">
        <ele>291.9</ele>
        <time>2014-02-20T14:35:54Z</time>
      </trkpt>
      <trkpt lat="46.77103" lon="5.60325">
        <ele>291.9</ele>
        <time>2014-02-20T14:36:00Z</time>
      </trkpt>
      <trkpt lat="46.77115" lon="5.60325">
        <ele>293.34</ele>
        <time>2014-02-20T14:36:15Z</time>
      </trkpt>
      <trkpt lat="46.77125" lon="5.60325">
        <ele>296.7</ele>
        <time>2014-02-20T14:36:29Z</time>
      </trkpt>
      <trkpt lat="46.77134" lon="5.60327">
        <ele>298.15</ele>
        <time>2014-02-20T14:36:43Z</time>
      </trkpt>
      <trkpt lat="46.7714" lon="5.60334">
        <ele>301.03</ele>
        <time>2014-02-20T14:36:56Z</time>
      </trkpt>
      <trkpt lat="46.77142" lon="5.60341">
        <ele>302.47</ele>
        <time>2014-02-20T14:37:07Z</time>
      </trkpt>
      <trkpt lat="46.77142" lon="5.60348">
        <ele>301.51</ele>
        <time>2014-02-20T14:37:19Z</time>
      </trkpt>
      <trkpt lat="46.77142" lon="5.60349">
        <ele>300.55</ele>
        <time>2014-02-20T14:37:26Z</time>
      </trkpt>
      <trkpt lat="46.7714" lon="5.60353">
        <ele>299.59</ele>
        <time>2014-02-20T14:37:30Z</time>
      </trkpt>
      <trkpt lat="46.77138" lon="5.60363">
        <ele>298.63</ele>
        <time>2014-02-20T14:37:40Z</time>
      </trkpt>
      <trkpt lat="46.77136" lon="5.60366">
        <ele>298.15</ele>
        <time>2014-02-20T14:37:42Z</time>
      </trkpt>
      <trkpt lat="46.77135" lon="5.6038">
        <ele>299.11</ele>
        <time>2014-02-20T14:37:55Z</time>
      </trkpt>
      <trkpt lat="46.77131" lon="5.60384">
        <ele>298.63</ele>
        <time>2014-02-20T14:38:09Z</time>
      </trkpt>
      <trkpt lat="46.77129" lon="5.60388">
        <ele>297.18</ele>
        <time>2014-02-20T14:39:06Z</time>
      </trkpt>
      <trkpt lat="46.7713" lon="5.60399">
        <ele>297.67</ele>
        <time>2014-02-20T14:39:24Z</time>
      </trkpt>
      <trkpt lat="46.77133" lon="5.60411">
        <ele>296.7</ele>
        <time>2014-02-20T14:39:34Z</time>
      </trkpt>
      <trkpt lat="46.7713" lon="5.60424">
        <ele>299.59</ele>
        <time>2014-02-20T14:39:46Z</time>
      </trkpt>
      <trkpt lat="46.77128" lon="5.6044">
        <ele>300.55</ele>
        <time>2014-02-20T14:39:58Z</time>
      </trkpt>
      <trkpt lat="46.77125" lon="5.60458">
        <ele>300.55</ele>
        <time>2014-02-20T14:40:11Z</time>
      </trkpt>
      <trkpt lat="46.77122" lon="5.60482">
        <ele>301.03</ele>
        <time>2014-02-20T14:40:25Z</time>
      </trkpt>
      <trkpt lat="46.77118" lon="5.60497">
        <ele>302.95</ele>
        <time>2014-02-20T14:40:35Z</time>
      </trkpt>
      <trkpt lat="46.77118" lon="5.60501">
        <ele>303.43</ele>
        <time>2014-02-20T14:40:37Z</time>
      </trkpt>
      <trkpt lat="46.77118" lon="5.60507">
        <ele>303.91</ele>
        <time>2014-02-20T14:40:41Z</time>
      </trkpt>
      <trkpt lat="46.77117" lon="5.60523">
        <ele>306.32</ele>
        <time>2014-02-20T14:40:53Z</time>
      </trkpt>
      <trkpt lat="46.7712" lon="5.6054">
        <ele>308.72</ele>
        <time>2014-02-20T14:41:04Z</time>
      </trkpt>
      <trkpt lat="46.77118" lon="5.60567">
        <ele>312.57</ele>
        <time>2014-02-20T14:41:17Z</time>
      </trkpt>
      <trkpt lat="46.77122" lon="5.6059">
        <ele>313.53</ele>
        <time>2014-02-20T14:41:30Z</time>
      </trkpt>
      <trkpt lat="46.77126" lon="5.60605">
        <ele>313.53</ele>
        <time>2014-02-20T14:41:40Z</time>
      </trkpt>
      <trkpt lat="46.77127" lon="5.60621">
        <ele>314.01</ele>
        <time>2014-02-20T14:41:53Z</time>
      </trkpt>
      <trkpt lat="46.77127" lon="5.60623">
        <ele>314.01</ele>
        <time>2014-02-20T14:41:54Z</time>
      </trkpt>
      <trkpt lat="46.77131" lon="5.60643">
        <ele>315.93</ele>
        <time>2014-02-20T14:42:06Z</time>
      </trkpt>
      <trkpt lat="46.77133" lon="5.60651">
        <ele>316.41</ele>
        <time>2014-02-20T14:42:11Z</time>
      </trkpt>
      <trkpt lat="46.7714" lon="5.60669">
        <ele>319.3</ele>
        <time>2014-02-20T14:42:24Z</time>
      </trkpt>
      <trkpt lat="46.77141" lon="5.60683">
        <ele>322.66</ele>
        <time>2014-02-20T14:42:37Z</time>
      </trkpt>
      <trkpt lat="46.77144" lon="5.60697">
        <ele>315.45</ele>
        <time>2014-02-20T14:42:51Z</time>
      </trkpt>
      <trkpt lat="46.77147" lon="5.60716">
        <ele>315.45</ele>
        <time>2014-02-20T14:43:04Z</time>
      </trkpt>
      <trkpt lat="46.77156" lon="5.60727">
        <ele>314.97</ele>
        <time>2014-02-20T14:43:15Z</time>
      </trkpt>
      <trkpt lat="46.77162" lon="5.60736">
        <ele>314.97</ele>
        <time>2014-02-20T14:43:28Z</time>
      </trkpt>
      <trkpt lat="46.77168" lon="5.60747">
        <ele>316.41</ele>
        <time>2014-02-20T14:43:43Z</time>
      </trkpt>
      <trkpt lat="46.77173" lon="5.60759">
        <ele>317.85</ele>
        <time>2014-02-20T14:43:55Z</time>
      </trkpt>
      <trkpt lat="46.77177" lon="5.60771">
        <ele>320.26</ele>
        <time>2014-02-20T14:44:06Z</time>
      </trkpt>
      <trkpt lat="46.7718" lon="5.60783">
        <ele>322.18</ele>
        <time>2014-02-20T14:44:17Z</time>
      </trkpt>
      <trkpt lat="46.77182" lon="5.60788">
        <ele>321.7</ele>
        <time>2014-02-20T14:44:21Z</time>
      </trkpt>
      <trkpt lat="46.77189" lon="5.60804">
        <ele>323.62</ele>
        <time>2014-02-20T14:44:32Z</time>
      </trkpt>
      <trkpt lat="46.77192" lon="5.60812">
        <ele>324.58</ele>
        <time>2014-02-20T14:44:39Z</time>
      </trkpt>
      <trkpt lat="46.772" lon="5.60825">
        <ele>326.02</ele>
        <time>2014-02-20T14:44:51Z</time>
      </trkpt>
      <trkpt lat="46.77201" lon="5.60826">
        <ele>326.5</ele>
        <time>2014-02-20T14:44:52Z</time>
      </trkpt>
      <trkpt lat="46.7721" lon="5.60841">
        <ele>328.91</ele>
        <time>2014-02-20T14:45:05Z</time>
      </trkpt>
      <trkpt lat="46.77217" lon="5.60852">
        <ele>330.83</ele>
        <time>2014-02-20T14:45:17Z</time>
      </trkpt>
      <trkpt lat="46.77225" lon="5.60868">
        <ele>331.79</ele>
        <time>2014-02-20T14:45:30Z</time>
      </trkpt>
      <trkpt lat="46.77227" lon="5.60872">
        <ele>331.79</ele>
        <time>2014-02-20T14:45:33Z</time>
      </trkpt>
      <trkpt lat="46.77228" lon="5.60875">
        <ele>331.31</ele>
        <time>2014-02-20T14:45:35Z</time>
      </trkpt>
      <trkpt lat="46.77236" lon="5.60891">
        <ele>331.79</ele>
        <time>2014-02-20T14:45:49Z</time>
      </trkpt>
      <trkpt lat="46.77239" lon="5.60898">
        <ele>334.2</ele>
        <time>2014-02-20T14:45:55Z</time>
      </trkpt>
      <trkpt lat="46.77245" lon="5.60908">
        <ele>337.08</ele>
        <time>2014-02-20T14:46:07Z</time>
      </trkpt>
      <trkpt lat="46.77247" lon="5.60914">
        <ele>339</ele>
        <time>2014-02-20T14:46:12Z</time>
      </trkpt>
      <trkpt lat="46.77254" lon="5.60928">
        <ele>339.48</ele>
        <time>2014-02-20T14:46:24Z</time>
      </trkpt>
      <trkpt lat="46.77255" lon="5.60929">
        <ele>339.48</ele>
        <time>2014-02-20T14:46:25Z</time>
      </trkpt>
      <trkpt lat="46.77256" lon="5.60932">
        <ele>339.48</ele>
        <time>2014-02-20T14:46:27Z</time>
      </trkpt>
      <trkpt lat="46.77268" lon="5.60951">
        <ele>339.48</ele>
        <time>2014-02-20T14:46:42Z</time>
      </trkpt>
      <trkpt lat="46.77278" lon="5.60968">
        <ele>339</ele>
        <time>2014-02-20T14:46:55Z</time>
      </trkpt>
      <trkpt lat="46.77281" lon="5.60973">
        <ele>339.48</ele>
        <time>2014-02-20T14:46:59Z</time>
      </trkpt>
      <trkpt lat="46.7729" lon="5.60989">
        <ele>342.37</ele>
        <time>2014-02-20T14:47:14Z</time>
      </trkpt>
      <trkpt lat="46.77292" lon="5.60994">
        <ele>341.89</ele>
        <time>2014-02-20T14:47:18Z</time>
      </trkpt>
      <trkpt lat="46.77296" lon="5.61">
        <ele>341.89</ele>
        <time>2014-02-20T14:47:24Z</time>
      </trkpt>
      <trkpt lat="46.77306" lon="5.61014">
        <ele>339.48</ele>
        <time>2014-02-20T14:47:36Z</time>
      </trkpt>
      <trkpt lat="46.77315" lon="5.61024">
        <ele>340.92</ele>
        <time>2014-02-20T14:47:48Z</time>
      </trkpt>
      <trkpt lat="46.77319" lon="5.61029">
        <ele>342.37</ele>
        <time>2014-02-20T14:47:53Z</time>
      </trkpt>
      <trkpt lat="46.77325" lon="5.61033">
        <ele>342.85</ele>
        <time>2014-02-20T14:48:01Z</time>
      </trkpt>
      <trkpt lat="46.77336" lon="5.61046">
        <ele>344.77</ele>
        <time>2014-02-20T14:48:13Z</time>
      </trkpt>
      <trkpt lat="46.77347" lon="5.61057">
        <ele>344.77</ele>
        <time>2014-02-20T14:48:26Z</time>
      </trkpt>
      <trkpt lat="46.77348" lon="5.61057">
        <ele>344.77</ele>
        <time>2014-02-20T14:48:27Z</time>
      </trkpt>
      <trkpt lat="46.7735" lon="5.61059">
        <ele>344.29</ele>
        <time>2014-02-20T14:48:30Z</time>
      </trkpt>
      <trkpt lat="46.77358" lon="5.61065">
        <ele>345.73</ele>
        <time>2014-02-20T14:48:40Z</time>
      </trkpt>
      <trkpt lat="46.7736" lon="5.61066">
        <ele>345.73</ele>
        <time>2014-02-20T14:48:42Z</time>
      </trkpt>
      <trkpt lat="46.77366" lon="5.61071">
        <ele>346.21</ele>
        <time>2014-02-20T14:48:49Z</time>
      </trkpt>
      <trkpt lat="46.77367" lon="5.61073">
        <ele>346.69</ele>
        <time>2014-02-20T14:48:51Z</time>
      </trkpt>
      <trkpt lat="46.7737" lon="5.61076">
        <ele>348.13</ele>
        <time>2014-02-20T14:48:55Z</time>
      </trkpt>
      <trkpt lat="46.77372" lon="5.61077">
        <ele>348.62</ele>
        <time>2014-02-20T14:48:57Z</time>
      </trkpt>
      <trkpt lat="46.77383" lon="5.61088">
        <ele>353.9</ele>
        <time>2014-02-20T14:49:12Z</time>
      </trkpt>
      <trkpt lat="46.77388" lon="5.61092">
        <ele>354.38</ele>
        <time>2014-02-20T14:49:18Z</time>
      </trkpt>
      <trkpt lat="46.77392" lon="5.61095">
        <ele>354.86</ele>
        <time>2014-02-20T14:49:22Z</time>
      </trkpt>
      <trkpt lat="46.77394" lon="5.61096">
        <ele>355.34</ele>
        <time>2014-02-20T14:49:24Z</time>
      </trkpt>
      <trkpt lat="46.774" lon="5.61103">
        <ele>354.86</ele>
        <time>2014-02-20T14:49:31Z</time>
      </trkpt>
      <trkpt lat="46.77412" lon="5.6111">
        <ele>354.38</ele>
        <time>2014-02-20T14:49:43Z</time>
      </trkpt>
      <trkpt lat="46.77422" lon="5.61118">
        <ele>353.42</ele>
        <time>2014-02-20T14:49:53Z</time>
      </trkpt>
      <trkpt lat="46.77435" lon="5.61126">
        <ele>351.02</ele>
        <time>2014-02-20T14:50:06Z</time>
      </trkpt>
      <trkpt lat="46.77436" lon="5.61127">
        <ele>351.02</ele>
        <time>2014-02-20T14:50:07Z</time>
      </trkpt>
      <trkpt lat="46.77444" lon="5.61132">
        <ele>350.54</ele>
        <time>2014-02-20T14:50:15Z</time>
      </trkpt>
      <trkpt lat="46.7745" lon="5.61135">
        <ele>350.54</ele>
        <time>2014-02-20T14:50:22Z</time>
      </trkpt>
      <trkpt lat="46.77458" lon="5.6114">
        <ele>351.5</ele>
        <time>2014-02-20T14:50:32Z</time>
      </trkpt>
      <trkpt lat="46.77468" lon="5.61145">
        <ele>350.54</ele>
        <time>2014-02-20T14:50:43Z</time>
      </trkpt>
      <trkpt lat="46.77479" lon="5.61153">
        <ele>347.65</ele>
        <time>2014-02-20T14:50:54Z</time>
      </trkpt>
      <trkpt lat="46.7749" lon="5.61158">
        <ele>346.21</ele>
        <time>2014-02-20T14:51:06Z</time>
      </trkpt>
      <trkpt lat="46.77503" lon="5.61169">
        <ele>352.46</ele>
        <time>2014-02-20T14:51:17Z</time>
      </trkpt>
      <trkpt lat="46.77506" lon="5.61172">
        <ele>353.9</ele>
        <time>2014-02-20T14:51:19Z</time>
      </trkpt>
      <trkpt lat="46.77519" lon="5.61181">
        <ele>356.79</ele>
        <time>2014-02-20T14:51:32Z</time>
      </trkpt>
      <trkpt lat="46.7752" lon="5.61182">
        <ele>357.27</ele>
        <time>2014-02-20T14:51:33Z</time>
      </trkpt>
      <trkpt lat="46.77533" lon="5.61197">
        <ele>357.75</ele>
        <time>2014-02-20T14:51:49Z</time>
      </trkpt>
      <trkpt lat="46.77541" lon="5.61204">
        <ele>359.67</ele>
        <time>2014-02-20T14:52:00Z</time>
      </trkpt>
      <trkpt lat="46.77552" lon="5.61215">
        <ele>363.04</ele>
        <time>2014-02-20T14:52:14Z</time>
      </trkpt>
      <trkpt lat="46.77553" lon="5.61216">
        <ele>362.55</ele>
        <time>2014-02-20T14:52:16Z</time>
      </trkpt>
      <trkpt lat="46.77555" lon="5.61218">
        <ele>361.59</ele>
        <time>2014-02-20T14:52:18Z</time>
      </trkpt>
      <trkpt lat="46.77571" lon="5.61229">
        <ele>357.27</ele>
        <time>2014-02-20T14:52:34Z</time>
      </trkpt>
      <trkpt lat="46.77586" lon="5.61241">
        <ele>358.71</ele>
        <time>2014-02-20T14:52:50Z</time>
      </trkpt>
      <trkpt lat="46.77591" lon="5.61243">
        <ele>358.71</ele>
        <time>2014-02-20T14:52:54Z</time>
      </trkpt>
      <trkpt lat="46.77605" lon="5.61252">
        <ele>359.67</ele>
        <time>2014-02-20T14:53:08Z</time>
      </trkpt>
      <trkpt lat="46.77617" lon="5.61263">
        <ele>361.11</ele>
        <time>2014-02-20T14:53:23Z</time>
      </trkpt>
      <trkpt lat="46.77623" lon="5.61268">
        <ele>361.11</ele>
        <time>2014-02-20T14:53:30Z</time>
      </trkpt>
      <trkpt lat="46.77626" lon="5.61269">
        <ele>360.63</ele>
        <time>2014-02-20T14:53:33Z</time>
      </trkpt>
      <trkpt lat="46.77628" lon="5.6127">
        <ele>360.15</ele>
        <time>2014-02-20T14:53:35Z</time>
      </trkpt>
      <trkpt lat="46.7764" lon="5.61275">
        <ele>359.19</ele>
        <time>2014-02-20T14:53:49Z</time>
      </trkpt>
      <trkpt lat="46.77649" lon="5.61279">
        <ele>356.79</ele>
        <time>2014-02-20T14:54:00Z</time>
      </trkpt>
      <trkpt lat="46.77655" lon="5.61281">
        <ele>355.83</ele>
        <time>2014-02-20T14:54:07Z</time>
      </trkpt>
      <trkpt lat="46.77666" lon="5.61287">
        <ele>354.38</ele>
        <time>2014-02-20T14:54:19Z</time>
      </trkpt>
      <trkpt lat="46.77677" lon="5.61296">
        <ele>353.9</ele>
        <time>2014-02-20T14:54:33Z</time>
      </trkpt>
      <trkpt lat="46.77686" lon="5.61302">
        <ele>354.86</ele>
        <time>2014-02-20T14:54:44Z</time>
      </trkpt>
      <trkpt lat="46.77696" lon="5.61309">
        <ele>355.83</ele>
        <time>2014-02-20T14:54:56Z</time>
      </trkpt>
      <trkpt lat="46.77698" lon="5.6131">
        <ele>355.83</ele>
        <time>2014-02-20T14:54:58Z</time>
      </trkpt>
      <trkpt lat="46.77704" lon="5.61316">
        <ele>355.83</ele>
        <time>2014-02-20T14:55:06Z</time>
      </trkpt>
      <trkpt lat="46.77709" lon="5.6132">
        <ele>356.31</ele>
        <time>2014-02-20T14:55:13Z</time>
      </trkpt>
      <trkpt lat="46.77719" lon="5.61327">
        <ele>355.34</ele>
        <time>2014-02-20T14:55:27Z</time>
      </trkpt>
      <trkpt lat="46.77729" lon="5.61335">
        <ele>354.86</ele>
        <time>2014-02-20T14:55:38Z</time>
      </trkpt>
      <trkpt lat="46.77738" lon="5.61341">
        <ele>354.86</ele>
        <time>2014-02-20T14:55:49Z</time>
      </trkpt>
      <trkpt lat="46.77749" lon="5.61351">
        <ele>357.75</ele>
        <time>2014-02-20T14:56:03Z</time>
      </trkpt>
      <trkpt lat="46.77761" lon="5.61361">
        <ele>358.71</ele>
        <time>2014-02-20T14:56:17Z</time>
      </trkpt>
      <trkpt lat="46.77764" lon="5.61363">
        <ele>359.67</ele>
        <time>2014-02-20T14:56:21Z</time>
      </trkpt>
      <trkpt lat="46.77775" lon="5.61373">
        <ele>360.63</ele>
        <time>2014-02-20T14:56:35Z</time>
      </trkpt>
      <trkpt lat="46.77785" lon="5.61378">
        <ele>361.59</ele>
        <time>2014-02-20T14:56:47Z</time>
      </trkpt>
      <trkpt lat="46.77797" lon="5.61386">
        <ele>363.52</ele>
        <time>2014-02-20T14:57:02Z</time>
      </trkpt>
      <trkpt lat="46.77806" lon="5.61392">
        <ele>365.44</ele>
        <time>2014-02-20T14:57:15Z</time>
      </trkpt>
      <trkpt lat="46.77816" lon="5.61398">
        <ele>366.4</ele>
        <time>2014-02-20T14:57:26Z</time>
      </trkpt>
      <trkpt lat="46.77826" lon="5.61406">
        <ele>367.36</ele>
        <time>2014-02-20T14:57:37Z</time>
      </trkpt>
      <trkpt lat="46.77835" lon="5.61414">
        <ele>367.84</ele>
        <time>2014-02-20T14:57:48Z</time>
      </trkpt>
      <trkpt lat="46.77847" lon="5.61422">
        <ele>370.24</ele>
        <time>2014-02-20T14:58:02Z</time>
      </trkpt>
      <trkpt lat="46.77857" lon="5.61429">
        <ele>372.17</ele>
        <time>2014-02-20T14:58:14Z</time>
      </trkpt>
      <trkpt lat="46.77861" lon="5.61433">
        <ele>373.13</ele>
        <time>2014-02-20T14:58:19Z</time>
      </trkpt>
      <trkpt lat="46.77865" lon="5.61435">
        <ele>373.61</ele>
        <time>2014-02-20T14:58:23Z</time>
      </trkpt>
      <trkpt lat="46.77877" lon="5.61443">
        <ele>375.05</ele>
        <time>2014-02-20T14:58:38Z</time>
      </trkpt>
      <trkpt lat="46.77882" lon="5.61445">
        <ele>374.57</ele>
        <time>2014-02-20T14:58:52Z</time>
      </trkpt>
      <trkpt lat="46.77882" lon="5.61445">
        <ele>374.09</ele>
        <time>2014-02-20T14:59:19Z</time>
      </trkpt>
      <trkpt lat="46.77884" lon="5.61447">
        <ele>375.05</ele>
        <time>2014-02-20T15:00:27Z</time>
      </trkpt>
      <trkpt lat="46.77884" lon="5.61447">
        <ele>375.05</ele>
        <time>2014-02-20T15:00:49Z</time>
      </trkpt>
      <trkpt lat="46.77884" lon="5.6145">
        <ele>376.97</ele>
        <time>2014-02-20T15:02:24Z</time>
      </trkpt>
      <trkpt lat="46.77884" lon="5.61453">
        <ele>377.94</ele>
        <time>2014-02-20T15:02:36Z</time>
      </trkpt>
      <trkpt lat="46.77885" lon="5.61454">
        <ele>377.94</ele>
        <time>2014-02-20T15:02:38Z</time>
      </trkpt>
      <trkpt lat="46.77888" lon="5.61456">
        <ele>378.42</ele>
        <time>2014-02-20T15:02:43Z</time>
      </trkpt>
      <trkpt lat="46.7789" lon="5.61457">
        <ele>377.94</ele>
        <time>2014-02-20T15:02:45Z</time>
      </trkpt>
      <trkpt lat="46.77902" lon="5.61462">
        <ele>377.45</ele>
        <time>2014-02-20T15:02:58Z</time>
      </trkpt>
      <trkpt lat="46.77913" lon="5.61464">
        <ele>378.42</ele>
        <time>2014-02-20T15:03:12Z</time>
      </trkpt>
      <trkpt lat="46.7792" lon="5.61468">
        <ele>376.97</ele>
        <time>2014-02-20T15:03:21Z</time>
      </trkpt>
      <trkpt lat="46.77922" lon="5.6147">
        <ele>376.97</ele>
        <time>2014-02-20T15:03:23Z</time>
      </trkpt>
      <trkpt lat="46.77934" lon="5.61474">
        <ele>374.57</ele>
        <time>2014-02-20T15:03:36Z</time>
      </trkpt>
      <trkpt lat="46.77942" lon="5.61478">
        <ele>372.65</ele>
        <time>2014-02-20T15:03:44Z</time>
      </trkpt>
      <trkpt lat="46.77947" lon="5.6148">
        <ele>372.17</ele>
        <time>2014-02-20T15:03:49Z</time>
      </trkpt>
      <trkpt lat="46.77949" lon="5.6148">
        <ele>372.17</ele>
        <time>2014-02-20T15:03:51Z</time>
      </trkpt>
      <trkpt lat="46.77953" lon="5.61482">
        <ele>372.17</ele>
        <time>2014-02-20T15:03:56Z</time>
      </trkpt>
      <trkpt lat="46.77966" lon="5.61483">
        <ele>371.69</ele>
        <time>2014-02-20T15:04:10Z</time>
      </trkpt>
      <trkpt lat="46.77968" lon="5.61483">
        <ele>371.21</ele>
        <time>2014-02-20T15:04:12Z</time>
      </trkpt>
      <trkpt lat="46.77972" lon="5.61484">
        <ele>371.21</ele>
        <time>2014-02-20T15:04:15Z</time>
      </trkpt>
      <trkpt lat="46.77985" lon="5.61488">
        <ele>371.69</ele>
        <time>2014-02-20T15:04:28Z</time>
      </trkpt>
      <trkpt lat="46.77991" lon="5.61488">
        <ele>371.69</ele>
        <time>2014-02-20T15:04:34Z</time>
      </trkpt>
      <trkpt lat="46.77995" lon="5.61487">
        <ele>372.65</ele>
        <time>2014-02-20T15:04:39Z</time>
      </trkpt>
      <trkpt lat="46.78005" lon="5.61486">
        <ele>372.17</ele>
        <time>2014-02-20T15:04:49Z</time>
      </trkpt>
      <trkpt lat="46.78009" lon="5.61486">
        <ele>372.17</ele>
        <time>2014-02-20T15:04:52Z</time>
      </trkpt>
      <trkpt lat="46.78013" lon="5.61486">
        <ele>371.21</ele>
        <time>2014-02-20T15:04:56Z</time>
      </trkpt>
      <trkpt lat="46.78024" lon="5.61487">
        <ele>369.76</ele>
        <time>2014-02-20T15:05:06Z</time>
      </trkpt>
      <trkpt lat="46.78039" lon="5.6149">
        <ele>369.76</ele>
        <time>2014-02-20T15:05:22Z</time>
      </trkpt>
      <trkpt lat="46.78043" lon="5.61491">
        <ele>369.76</ele>
        <time>2014-02-20T15:05:26Z</time>
      </trkpt>
      <trkpt lat="46.78055" lon="5.61495">
        <ele>368.32</ele>
        <time>2014-02-20T15:05:37Z</time>
      </trkpt>
      <trkpt lat="46.78067" lon="5.61499">
        <ele>367.36</ele>
        <time>2014-02-20T15:05:50Z</time>
      </trkpt>
      <trkpt lat="46.78075" lon="5.615">
        <ele>366.88</ele>
        <time>2014-02-20T15:05:59Z</time>
      </trkpt>
      <trkpt lat="46.7808" lon="5.61502">
        <ele>365.44</ele>
        <time>2014-02-20T15:06:08Z</time>
      </trkpt>
      <trkpt lat="46.78085" lon="5.615">
        <ele>366.4</ele>
        <time>2014-02-20T15:06:45Z</time>
      </trkpt>
      <trkpt lat="46.78089" lon="5.615">
        <ele>365.92</ele>
        <time>2014-02-20T15:06:59Z</time>
      </trkpt>
      <trkpt lat="46.78092" lon="5.61499">
        <ele>364.48</ele>
        <time>2014-02-20T15:07:14Z</time>
      </trkpt>
      <trkpt lat="46.78093" lon="5.61499">
        <ele>364.96</ele>
        <time>2014-02-20T15:07:28Z</time>
      </trkpt>
      <trkpt lat="46.78098" lon="5.61499">
        <ele>363.52</ele>
        <time>2014-02-20T15:07:42Z</time>
      </trkpt>
      <trkpt lat="46.78107" lon="5.61501">
        <ele>363.04</ele>
        <time>2014-02-20T15:07:51Z</time>
      </trkpt>
      <trkpt lat="46.78109" lon="5.61502">
        <ele>362.55</ele>
        <time>2014-02-20T15:07:55Z</time>
      </trkpt>
      <trkpt lat="46.78117" lon="5.61506">
        <ele>360.63</ele>
        <time>2014-02-20T15:08:06Z</time>
      </trkpt>
      <trkpt lat="46.78124" lon="5.61512">
        <ele>358.23</ele>
        <time>2014-02-20T15:08:16Z</time>
      </trkpt>
      <trkpt lat="46.78126" lon="5.61514">
        <ele>357.27</ele>
        <time>2014-02-20T15:08:19Z</time>
      </trkpt>
      <trkpt lat="46.78134" lon="5.61519">
        <ele>356.31</ele>
        <time>2014-02-20T15:08:29Z</time>
      </trkpt>
      <trkpt lat="46.78142" lon="5.61528">
        <ele>355.83</ele>
        <time>2014-02-20T15:08:40Z</time>
      </trkpt>
      <trkpt lat="46.78144" lon="5.61528">
        <ele>355.34</ele>
        <time>2014-02-20T15:08:42Z</time>
      </trkpt>
      <trkpt lat="46.78152" lon="5.61536">
        <ele>354.38</ele>
        <time>2014-02-20T15:08:52Z</time>
      </trkpt>
      <trkpt lat="46.78163" lon="5.61545">
        <ele>354.86</ele>
        <time>2014-02-20T15:09:04Z</time>
      </trkpt>
      <trkpt lat="46.78168" lon="5.61548">
        <ele>354.38</ele>
        <time>2014-02-20T15:09:15Z</time>
      </trkpt>
      <trkpt lat="46.78175" lon="5.61556">
        <ele>354.38</ele>
        <time>2014-02-20T15:09:25Z</time>
      </trkpt>
      <trkpt lat="46.78179" lon="5.61561">
        <ele>354.86</ele>
        <time>2014-02-20T15:09:34Z</time>
      </trkpt>
      <trkpt lat="46.78187" lon="5.6157">
        <ele>352.94</ele>
        <time>2014-02-20T15:09:47Z</time>
      </trkpt>
      <trkpt lat="46.7819" lon="5.61573">
        <ele>351.98</ele>
        <time>2014-02-20T15:09:54Z</time>
      </trkpt>
      <trkpt lat="46.78197" lon="5.61582">
        <ele>350.06</ele>
        <time>2014-02-20T15:10:05Z</time>
      </trkpt>
      <trkpt lat="46.78208" lon="5.61591">
        <ele>347.65</ele>
        <time>2014-02-20T15:10:15Z</time>
      </trkpt>
      <trkpt lat="46.78217" lon="5.61593">
        <ele>347.65</ele>
        <time>2014-02-20T15:10:26Z</time>
      </trkpt>
      <trkpt lat="46.78224" lon="5.61595">
        <ele>348.62</ele>
        <time>2014-02-20T15:10:32Z</time>
      </trkpt>
      <trkpt lat="46.78229" lon="5.61595">
        <ele>350.54</ele>
        <time>2014-02-20T15:10:36Z</time>
      </trkpt>
      <trkpt lat="46.78238" lon="5.61597">
        <ele>353.9</ele>
        <time>2014-02-20T15:10:44Z</time>
      </trkpt>
      <trkpt lat="46.78242" lon="5.61597">
        <ele>352.94</ele>
        <time>2014-02-20T15:10:46Z</time>
      </trkpt>
      <trkpt lat="46.78256" lon="5.61599">
        <ele>357.75</ele>
        <time>2014-02-20T15:10:57Z</time>
      </trkpt>
      <trkpt lat="46.78264" lon="5.61602">
        <ele>358.23</ele>
        <time>2014-02-20T15:11:02Z</time>
      </trkpt>
      <trkpt lat="46.78272" lon="5.61607">
        <ele>357.75</ele>
        <time>2014-02-20T15:11:09Z</time>
      </trkpt>
      <trkpt lat="46.78284" lon="5.61619">
        <ele>353.42</ele>
        <time>2014-02-20T15:11:23Z</time>
      </trkpt>
      <trkpt lat="46.78292" lon="5.61633">
        <ele>351.5</ele>
        <time>2014-02-20T15:11:34Z</time>
      </trkpt>
      <trkpt lat="46.78296" lon="5.61642">
        <ele>350.06</ele>
        <time>2014-02-20T15:11:41Z</time>
      </trkpt>
      <trkpt lat="46.78305" lon="5.61653">
        <ele>350.06</ele>
        <time>2014-02-20T15:11:56Z</time>
      </trkpt>
      <trkpt lat="46.78309" lon="5.61655">
        <ele>351.5</ele>
        <time>2014-02-20T15:12:00Z</time>
      </trkpt>
      <trkpt lat="46.78318" lon="5.61656">
        <ele>358.23</ele>
        <time>2014-02-20T15:12:12Z</time>
      </trkpt>
      <trkpt lat="46.7833" lon="5.61641">
        <ele>360.15</ele>
        <time>2014-02-20T15:12:26Z</time>
      </trkpt>
      <trkpt lat="46.7834" lon="5.61637">
        <ele>345.73</ele>
        <time>2014-02-20T15:12:39Z</time>
      </trkpt>
      <trkpt lat="46.78344" lon="5.6164">
        <ele>344.29</ele>
        <time>2014-02-20T15:12:52Z</time>
      </trkpt>
      <trkpt lat="46.78347" lon="5.61642">
        <ele>344.77</ele>
        <time>2014-02-20T15:12:56Z</time>
      </trkpt>
      <trkpt lat="46.78353" lon="5.61655">
        <ele>347.17</ele>
        <time>2014-02-20T15:13:08Z</time>
      </trkpt>
      <trkpt lat="46.78355" lon="5.61659">
        <ele>348.62</ele>
        <time>2014-02-20T15:13:12Z</time>
      </trkpt>
      <trkpt lat="46.78362" lon="5.61673">
        <ele>354.38</ele>
        <time>2014-02-20T15:13:26Z</time>
      </trkpt>
      <trkpt lat="46.78363" lon="5.61678">
        <ele>355.83</ele>
        <time>2014-02-20T15:13:31Z</time>
      </trkpt>
      <trkpt lat="46.78365" lon="5.61684">
        <ele>357.75</ele>
        <time>2014-02-20T15:13:48Z</time>
      </trkpt>
      <trkpt lat="46.78367" lon="5.61685">
        <ele>358.71</ele>
        <time>2014-02-20T15:13:59Z</time>
      </trkpt>
      <trkpt lat="46.7837" lon="5.61688">
        <ele>358.71</ele>
        <time>2014-02-20T15:14:10Z</time>
      </trkpt>
      <trkpt lat="46.78376" lon="5.6169">
        <ele>353.9</ele>
        <time>2014-02-20T15:14:36Z</time>
      </trkpt>
      <trkpt lat="46.78379" lon="5.61687">
        <ele>353.9</ele>
        <time>2014-02-20T15:15:00Z</time>
      </trkpt>
      <trkpt lat="46.78379" lon="5.61684">
        <ele>354.38</ele>
        <time>2014-02-20T15:15:13Z</time>
      </trkpt>
      <trkpt lat="46.7838" lon="5.61678">
        <ele>356.79</ele>
        <time>2014-02-20T15:15:30Z</time>
      </trkpt>
      <trkpt lat="46.78381" lon="5.61674">
        <ele>358.71</ele>
        <time>2014-02-20T15:15:43Z</time>
      </trkpt>
      <trkpt lat="46.7838" lon="5.61662">
        <ele>359.19</ele>
        <time>2014-02-20T15:15:56Z</time>
      </trkpt>
      <trkpt lat="46.78374" lon="5.61651">
        <ele>361.11</ele>
        <time>2014-02-20T15:16:09Z</time>
      </trkpt>
      <trkpt lat="46.78367" lon="5.61641">
        <ele>367.36</ele>
        <time>2014-02-20T15:16:24Z</time>
      </trkpt>
      <trkpt lat="46.78364" lon="5.61628">
        <ele>372.65</ele>
        <time>2014-02-20T15:16:37Z</time>
      </trkpt>
      <trkpt lat="46.78363" lon="5.61626">
        <ele>373.61</ele>
        <time>2014-02-20T15:16:51Z</time>
      </trkpt>
      <trkpt lat="46.7836" lon="5.61615">
        <ele>376.01</ele>
        <time>2014-02-20T15:17:02Z</time>
      </trkpt>
      <trkpt lat="46.78358" lon="5.61599">
        <ele>379.38</ele>
        <time>2014-02-20T15:17:14Z</time>
      </trkpt>
      <trkpt lat="46.78356" lon="5.61587">
        <ele>381.3</ele>
        <time>2014-02-20T15:17:25Z</time>
      </trkpt>
      <trkpt lat="46.78358" lon="5.61573">
        <ele>384.66</ele>
        <time>2014-02-20T15:17:38Z</time>
      </trkpt>
      <trkpt lat="46.78363" lon="5.61567">
        <ele>386.11</ele>
        <time>2014-02-20T15:17:49Z</time>
      </trkpt>
      <trkpt lat="46.7837" lon="5.61564">
        <ele>386.11</ele>
        <time>2014-02-20T15:18:01Z</time>
      </trkpt>
      <trkpt lat="46.78374" lon="5.61563">
        <ele>385.15</ele>
        <time>2014-02-20T15:18:13Z</time>
      </trkpt>
      <trkpt lat="46.78377" lon="5.61563">
        <ele>386.11</ele>
        <time>2014-02-20T15:18:38Z</time>
      </trkpt>
      <trkpt lat="46.78381" lon="5.61561">
        <ele>386.59</ele>
        <time>2014-02-20T15:18:51Z</time>
      </trkpt>
      <trkpt lat="46.78386" lon="5.61562">
        <ele>388.03</ele>
        <time>2014-02-20T15:19:03Z</time>
      </trkpt>
      <trkpt lat="46.78395" lon="5.61566">
        <ele>392.36</ele>
        <time>2014-02-20T15:19:21Z</time>
      </trkpt>
      <trkpt lat="46.784" lon="5.6157">
        <ele>394.76</ele>
        <time>2014-02-20T15:19:31Z</time>
      </trkpt>
      <trkpt lat="46.78405" lon="5.61574">
        <ele>400.05</ele>
        <time>2014-02-20T15:19:43Z</time>
      </trkpt>
      <trkpt lat="46.78413" lon="5.61579">
        <ele>403.89</ele>
        <time>2014-02-20T15:19:59Z</time>
      </trkpt>
      <trkpt lat="46.78421" lon="5.61585">
        <ele>405.81</ele>
        <time>2014-02-20T15:20:11Z</time>
      </trkpt>
      <trkpt lat="46.78426" lon="5.6159">
        <ele>406.77</ele>
        <time>2014-02-20T15:20:22Z</time>
      </trkpt>
      <trkpt lat="46.78431" lon="5.61597">
        <ele>407.26</ele>
        <time>2014-02-20T15:20:34Z</time>
      </trkpt>
      <trkpt lat="46.78435" lon="5.61597">
        <ele>406.77</ele>
        <time>2014-02-20T15:20:55Z</time>
      </trkpt>
      <trkpt lat="46.78435" lon="5.61602">
        <ele>407.26</ele>
        <time>2014-02-20T15:21:09Z</time>
      </trkpt>
      <trkpt lat="46.78435" lon="5.6161">
        <ele>411.58</ele>
        <time>2014-02-20T15:21:23Z</time>
      </trkpt>
      <trkpt lat="46.78437" lon="5.61619">
        <ele>413.02</ele>
        <time>2014-02-20T15:21:34Z</time>
      </trkpt>
      <trkpt lat="46.78441" lon="5.61629">
        <ele>414.47</ele>
        <time>2014-02-20T15:21:43Z</time>
      </trkpt>
      <trkpt lat="46.78448" lon="5.61643">
        <ele>416.87</ele>
        <time>2014-02-20T15:22:00Z</time>
      </trkpt>
      <trkpt lat="46.78453" lon="5.61647">
        <ele>415.91</ele>
        <time>2014-02-20T15:22:12Z</time>
      </trkpt>
      <trkpt lat="46.78458" lon="5.61654">
        <ele>414.95</ele>
        <time>2014-02-20T15:22:26Z</time>
      </trkpt>
      <trkpt lat="46.78463" lon="5.61658">
        <ele>413.5</ele>
        <time>2014-02-20T15:22:33Z</time>
      </trkpt>
      <trkpt lat="46.7847" lon="5.61665">
        <ele>413.98</ele>
        <time>2014-02-20T15:22:45Z</time>
      </trkpt>
      <trkpt lat="46.78475" lon="5.61667">
        <ele>414.47</ele>
        <time>2014-02-20T15:22:50Z</time>
      </trkpt>
      <trkpt lat="46.78487" lon="5.61668">
        <ele>415.43</ele>
        <time>2014-02-20T15:23:02Z</time>
      </trkpt>
      <trkpt lat="46.78496" lon="5.61673">
        <ele>417.83</ele>
        <time>2014-02-20T15:23:15Z</time>
      </trkpt>
      <trkpt lat="46.785" lon="5.61676">
        <ele>417.83</ele>
        <time>2014-02-20T15:23:26Z</time>
      </trkpt>
      <trkpt lat="46.78509" lon="5.61682">
        <ele>416.39</ele>
        <time>2014-02-20T15:23:37Z</time>
      </trkpt>
      <trkpt lat="46.78517" lon="5.61685">
        <ele>415.91</ele>
        <time>2014-02-20T15:23:49Z</time>
      </trkpt>
      <trkpt lat="46.78522" lon="5.61688">
        <ele>417.35</ele>
        <time>2014-02-20T15:24:06Z</time>
      </trkpt>
      <trkpt lat="46.78529" lon="5.61687">
        <ele>418.79</ele>
        <time>2014-02-20T15:24:19Z</time>
      </trkpt>
      <trkpt lat="46.7854" lon="5.6169">
        <ele>418.79</ele>
        <time>2014-02-20T15:24:31Z</time>
      </trkpt>
      <trkpt lat="46.78545" lon="5.61693">
        <ele>419.75</ele>
        <time>2014-02-20T15:24:43Z</time>
      </trkpt>
      <trkpt lat="46.78548" lon="5.61698">
        <ele>420.71</ele>
        <time>2014-02-20T15:24:56Z</time>
      </trkpt>
      <trkpt lat="46.78554" lon="5.61707">
        <ele>423.12</ele>
        <time>2014-02-20T15:25:07Z</time>
      </trkpt>
      <trkpt lat="46.78557" lon="5.61711">
        <ele>425.04</ele>
        <time>2014-02-20T15:25:18Z</time>
      </trkpt>
      <trkpt lat="46.7856" lon="5.61713">
        <ele>424.56</ele>
        <time>2014-02-20T15:25:40Z</time>
      </trkpt>
      <trkpt lat="46.78561" lon="5.61717">
        <ele>424.56</ele>
        <time>2014-02-20T15:26:19Z</time>
      </trkpt>
      <trkpt lat="46.78564" lon="5.61726">
        <ele>426.96</ele>
        <time>2014-02-20T15:26:35Z</time>
      </trkpt>
      <trkpt lat="46.78567" lon="5.6173">
        <ele>426.96</ele>
        <time>2014-02-20T15:26:46Z</time>
      </trkpt>
      <trkpt lat="46.78571" lon="5.61738">
        <ele>426.48</ele>
        <time>2014-02-20T15:26:58Z</time>
      </trkpt>
      <trkpt lat="46.78576" lon="5.61743">
        <ele>425.04</ele>
        <time>2014-02-20T15:27:08Z</time>
      </trkpt>
      <trkpt lat="46.7858" lon="5.61759">
        <ele>424.56</ele>
        <time>2014-02-20T15:27:21Z</time>
      </trkpt>
      <trkpt lat="46.78583" lon="5.61765">
        <ele>422.16</ele>
        <time>2014-02-20T15:27:33Z</time>
      </trkpt>
      <trkpt lat="46.7859" lon="5.61773">
        <ele>419.75</ele>
        <time>2014-02-20T15:27:43Z</time>
      </trkpt>
      <trkpt lat="46.78597" lon="5.6178">
        <ele>418.31</ele>
        <time>2014-02-20T15:27:53Z</time>
      </trkpt>
      <trkpt lat="46.78601" lon="5.61784">
        <ele>418.31</ele>
        <time>2014-02-20T15:28:00Z</time>
      </trkpt>
      <trkpt lat="46.78607" lon="5.61794">
        <ele>420.71</ele>
        <time>2014-02-20T15:28:13Z</time>
      </trkpt>
      <trkpt lat="46.78609" lon="5.61799">
        <ele>422.16</ele>
        <time>2014-02-20T15:28:26Z</time>
      </trkpt>
      <trkpt lat="46.78614" lon="5.61803">
        <ele>423.6</ele>
        <time>2014-02-20T15:28:43Z</time>
      </trkpt>
      <trkpt lat="46.78621" lon="5.61807">
        <ele>423.6</ele>
        <time>2014-02-20T15:28:53Z</time>
      </trkpt>
      <trkpt lat="46.7863" lon="5.6181">
        <ele>425.04</ele>
        <time>2014-02-20T15:29:04Z</time>
      </trkpt>
      <trkpt lat="46.78635" lon="5.61815">
        <ele>426.48</ele>
        <time>2014-02-20T15:29:11Z</time>
      </trkpt>
      <trkpt lat="46.78643" lon="5.61826">
        <ele>426.48</ele>
        <time>2014-02-20T15:29:22Z</time>
      </trkpt>
      <trkpt lat="46.7865" lon="5.61837">
        <ele>428.4</ele>
        <time>2014-02-20T15:29:34Z</time>
      </trkpt>
      <trkpt lat="46.78653" lon="5.61841">
        <ele>428.89</ele>
        <time>2014-02-20T15:29:38Z</time>
      </trkpt>
      <trkpt lat="46.78654" lon="5.61845">
        <ele>428.89</ele>
        <time>2014-02-20T15:29:41Z</time>
      </trkpt>
      <trkpt lat="46.78658" lon="5.61855">
        <ele>428.4</ele>
        <time>2014-02-20T15:29:48Z</time>
      </trkpt>
      <trkpt lat="46.78656" lon="5.61874">
        <ele>431.77</ele>
        <time>2014-02-20T15:30:02Z</time>
      </trkpt>
      <trkpt lat="46.78657" lon="5.61888">
        <ele>435.61</ele>
        <time>2014-02-20T15:30:15Z</time>
      </trkpt>
      <trkpt lat="46.78659" lon="5.61898">
        <ele>437.06</ele>
        <time>2014-02-20T15:30:26Z</time>
      </trkpt>
      <trkpt lat="46.7866" lon="5.61902">
        <ele>437.54</ele>
        <time>2014-02-20T15:30:29Z</time>
      </trkpt>
      <trkpt lat="46.78663" lon="5.61917">
        <ele>438.5</ele>
        <time>2014-02-20T15:30:42Z</time>
      </trkpt>
      <trkpt lat="46.78667" lon="5.6193">
        <ele>440.42</ele>
        <time>2014-02-20T15:30:55Z</time>
      </trkpt>
      <trkpt lat="46.78669" lon="5.6194">
        <ele>443.31</ele>
        <time>2014-02-20T15:31:07Z</time>
      </trkpt>
      <trkpt lat="46.78674" lon="5.61959">
        <ele>445.23</ele>
        <time>2014-02-20T15:31:22Z</time>
      </trkpt>
      <trkpt lat="46.78678" lon="5.61967">
        <ele>448.59</ele>
        <time>2014-02-20T15:31:33Z</time>
      </trkpt>
      <trkpt lat="46.78682" lon="5.61979">
        <ele>449.07</ele>
        <time>2014-02-20T15:31:46Z</time>
      </trkpt>
      <trkpt lat="46.78682" lon="5.61991">
        <ele>449.55</ele>
        <time>2014-02-20T15:31:57Z</time>
      </trkpt>
      <trkpt lat="46.78682" lon="5.62001">
        <ele>451</ele>
        <time>2014-02-20T15:32:09Z</time>
      </trkpt>
      <trkpt lat="46.78682" lon="5.62014">
        <ele>456.28</ele>
        <time>2014-02-20T15:32:25Z</time>
      </trkpt>
      <trkpt lat="46.78684" lon="5.6203">
        <ele>462.05</ele>
        <time>2014-02-20T15:32:38Z</time>
      </trkpt>
      <trkpt lat="46.78688" lon="5.62043">
        <ele>468.3</ele>
        <time>2014-02-20T15:32:52Z</time>
      </trkpt>
      <trkpt lat="46.78692" lon="5.62057">
        <ele>466.86</ele>
        <time>2014-02-20T15:33:07Z</time>
      </trkpt>
      <trkpt lat="46.78691" lon="5.62055">
        <ele>466.38</ele>
        <time>2014-02-20T15:33:18Z</time>
      </trkpt>
      <trkpt lat="46.78693" lon="5.62045">
        <ele>462.05</ele>
        <time>2014-02-20T15:33:31Z</time>
      </trkpt>
      <trkpt lat="46.7869" lon="5.62037">
        <ele>462.53</ele>
        <time>2014-02-20T15:33:45Z</time>
      </trkpt>
      <trkpt lat="46.78685" lon="5.62032">
        <ele>463.01</ele>
        <time>2014-02-20T15:33:54Z</time>
      </trkpt>
      <trkpt lat="46.78684" lon="5.62031">
        <ele>461.57</ele>
        <time>2014-02-20T15:34:23Z</time>
      </trkpt>
      <trkpt lat="46.78684" lon="5.62031">
        <ele>461.09</ele>
        <time>2014-02-20T15:35:01Z</time>
      </trkpt>
    </trkseg>
  </trk>
</gpx>